<?xml version="1.0" encoding="UTF-8"?>
<gpx creator="Garmin Connect" version="1.1"
  xsi:schemaLocation="http://www.topografix.com/GPX/1/1 http://www.topografix.com/GPX/11.xsd"
  xmlns:ns3="http://www.garmin.com/xmlschemas/TrackPointExtension/v1"
  xmlns="http://www.topografix.com/GPX/1/1"
  xmlns:xsi="http://www.w3.org/2001/XMLSchema-instance" xmlns:ns2="http://www.garmin.com/xmlschemas/GpxExtensions/v3">
  <metadata>
    <name>LU - Dag 6</name>
    <link href="connect.garmin.com">
      <text>Garmin Connect</text>
    </link>
    <time>2024-12-29T15:22:08.000Z</time>
  </metadata>
  <wpt lat="50.05415263934255" lon="6.03128995041803">
    <ele>0.0</ele>
    <name>Bakkerij cafe</name>
    <type>STORE</type>
  </wpt>
  <wpt lat="50.05614664878736" lon="6.0322533412433">
    <ele>0.0</ele>
    <name>Hoogste punt 1</name>
    <type>GENERIC</type>
  </wpt>
  <wpt lat="50.06745587418919" lon="6.02408843356722">
    <ele>0.0</ele>
    <name>Waterpunt 1</name>
    <type>GENERIC</type>
  </wpt>
  <wpt lat="50.07174648655916" lon="6.02516263433517">
    <ele>0.0</ele>
    <name>Hoogste punt 2</name>
    <type>GENERIC</type>
  </wpt>
  <wpt lat="50.0779206738976" lon="6.02654966285527">
    <ele>0.0</ele>
    <name>Waterpunt 2</name>
    <type>GENERIC</type>
  </wpt>
  <wpt lat="50.08057434327281" lon="6.0294158400631">
    <ele>0.0</ele>
    <name>Waterpunt 3</name>
    <type>GENERIC</type>
  </wpt>
  <wpt lat="50.08377608756321" lon="6.02163222682665">
    <ele>0.0</ele>
    <name>Hoogste punt 3</name>
    <type>GENERIC</type>
  </wpt>
  <wpt lat="50.09254447776861" lon="6.02135328584349">
    <ele>0.0</ele>
    <name>Oorlogs graven</name>
    <type>GENERIC</type>
  </wpt>
  <wpt lat="50.09638410125663" lon="6.01874864073456">
    <ele>0.0</ele>
    <name>Waterpunt 4</name>
    <type>GENERIC</type>
  </wpt>
  <wpt lat="50.10017775834216" lon="6.00980338742527">
    <ele>0.0</ele>
    <name>Hoogste punt 4</name>
    <type>GENERIC</type>
  </wpt>
  <wpt lat="50.1068509638487" lon="6.01056810765817">
    <ele>0.0</ele>
    <name>Waterpunt 5</name>
    <type>GENERIC</type>
  </wpt>
  <wpt lat="50.11035815020669" lon="6.00468690801512">
    <ele>0.0</ele>
    <name>Hoogste punt 5</name>
    <type>GENERIC</type>
  </wpt>
  <wpt lat="50.11660787985378" lon="6.00522071003201">
    <ele>0.0</ele>
    <name>Waterpunt 6</name>
    <type>GENERIC</type>
  </wpt>
  <wpt lat="50.11669850959655" lon="6.00413731288977">
    <ele>0.0</ele>
    <name>Waterpunt 7</name>
    <type>GENERIC</type>
  </wpt>
  <trk>
    <name>LU - Dag 6</name>
    <trkseg>
      <trkpt lat="50.05401394329965" lon="6.023411974310875">
        <ele>353.53</ele>
        <time>2024-12-29T15:22:08.000Z</time>
      </trkpt>
      <trkpt lat="50.05404797382653" lon="6.023451955989003">
        <ele>354.03</ele>
        <time>2024-12-29T15:22:08.006Z</time>
      </trkpt>
      <trkpt lat="50.054325917735696" lon="6.023598974570632">
        <ele>354.34</ele>
        <time>2024-12-29T15:22:08.051Z</time>
      </trkpt>
      <trkpt lat="50.05448299460113" lon="6.02365898899734">
        <ele>354.7</ele>
        <time>2024-12-29T15:22:08.117Z</time>
      </trkpt>
      <trkpt lat="50.054640490561724" lon="6.023716488853097">
        <ele>355.19</ele>
        <time>2024-12-29T15:22:08.205Z</time>
      </trkpt>
      <trkpt lat="50.05479798652232" lon="6.023773988708854">
        <ele>355.97</ele>
        <time>2024-12-29T15:22:08.315Z</time>
      </trkpt>
      <trkpt lat="50.0549179315567" lon="6.0238229390233755">
        <ele>356.95</ele>
        <time>2024-12-29T15:22:08.441Z</time>
      </trkpt>
      <trkpt lat="50.055054975673556" lon="6.0238149762153625">
        <ele>358.4</ele>
        <time>2024-12-29T15:22:08.586Z</time>
      </trkpt>
      <trkpt lat="50.05521976388991" lon="6.024218732491136">
        <ele>359.9</ele>
        <time>2024-12-29T15:22:08.772Z</time>
      </trkpt>
      <trkpt lat="50.05538396537304" lon="6.024620980024338">
        <ele>361.77</ele>
        <time>2024-12-29T15:22:08.999Z</time>
      </trkpt>
      <trkpt lat="50.05542495287955" lon="6.024757940322161">
        <ele>363.21</ele>
        <time>2024-12-29T15:22:09.239Z</time>
      </trkpt>
      <trkpt lat="50.05546594038606" lon="6.024934966117144">
        <ele>364.39</ele>
        <time>2024-12-29T15:22:09.495Z</time>
      </trkpt>
      <trkpt lat="50.05549393594265" lon="6.025101933628321">
        <ele>365.15</ele>
        <time>2024-12-29T15:22:09.766Z</time>
      </trkpt>
      <trkpt lat="50.05550893954933" lon="6.025264961645007">
        <ele>365.65</ele>
        <time>2024-12-29T15:22:10.051Z</time>
      </trkpt>
      <trkpt lat="50.05551799200475" lon="6.025469982996583">
        <ele>366.01</ele>
        <time>2024-12-29T15:22:10.353Z</time>
      </trkpt>
      <trkpt lat="50.05551899783313" lon="6.025703921914101">
        <ele>366.31</ele>
        <time>2024-12-29T15:22:10.675Z</time>
      </trkpt>
      <trkpt lat="50.05550893954933" lon="6.025895951315761">
        <ele>366.47</ele>
        <time>2024-12-29T15:22:11.014Z</time>
      </trkpt>
      <trkpt lat="50.05548999644816" lon="6.026116982102394">
        <ele>366.47</ele>
        <time>2024-12-29T15:22:11.372Z</time>
      </trkpt>
      <trkpt lat="50.05545093677938" lon="6.026450917124748">
        <ele>366.27</ele>
        <time>2024-12-29T15:22:11.759Z</time>
      </trkpt>
      <trkpt lat="50.05540885962546" lon="6.026701116934419">
        <ele>366.04</ele>
        <time>2024-12-29T15:22:12.169Z</time>
      </trkpt>
      <trkpt lat="50.0553669501096" lon="6.026949975639582">
        <ele>365.75</ele>
        <time>2024-12-29T15:22:12.601Z</time>
      </trkpt>
      <trkpt lat="50.05532797425985" lon="6.027157930657268">
        <ele>365.3</ele>
        <time>2024-12-29T15:22:13.051Z</time>
      </trkpt>
      <trkpt lat="50.0552839692682" lon="6.027348954230547">
        <ele>364.85</ele>
        <time>2024-12-29T15:22:13.519Z</time>
      </trkpt>
      <trkpt lat="50.055243987590075" lon="6.027503935620189">
        <ele>364.44</ele>
        <time>2024-12-29T15:22:14.001Z</time>
      </trkpt>
      <trkpt lat="50.0551769323647" lon="6.027686996385455">
        <ele>364.01</ele>
        <time>2024-12-29T15:22:14.501Z</time>
      </trkpt>
      <trkpt lat="50.05502672865987" lon="6.027961419895291">
        <ele>363.75</ele>
        <time>2024-12-29T15:22:15.032Z</time>
      </trkpt>
      <trkpt lat="50.05487694405019" lon="6.028234921395779">
        <ele>363.65</ele>
        <time>2024-12-29T15:22:15.594Z</time>
      </trkpt>
      <trkpt lat="50.05486696958542" lon="6.028259983286262">
        <ele>363.47</ele>
        <time>2024-12-29T15:22:16.158Z</time>
      </trkpt>
      <trkpt lat="50.05478993989527" lon="6.028437931090593">
        <ele>363.29</ele>
        <time>2024-12-29T15:22:16.741Z</time>
      </trkpt>
      <trkpt lat="50.054665971547365" lon="6.02877295576036">
        <ele>363.14</ele>
        <time>2024-12-29T15:22:17.357Z</time>
      </trkpt>
      <trkpt lat="50.05461894907057" lon="6.028870940208435">
        <ele>363.01</ele>
        <time>2024-12-29T15:22:17.984Z</time>
      </trkpt>
      <trkpt lat="50.05455398932099" lon="6.028989963233471">
        <ele>362.88</ele>
        <time>2024-12-29T15:22:18.624Z</time>
      </trkpt>
      <trkpt lat="50.054408982396126" lon="6.029152991250157">
        <ele>362.78</ele>
        <time>2024-12-29T15:22:19.288Z</time>
      </trkpt>
      <trkpt lat="50.05434796214104" lon="6.029215939342976">
        <ele>362.78</ele>
        <time>2024-12-29T15:22:19.962Z</time>
      </trkpt>
      <trkpt lat="50.05439892411232" lon="6.0293119959533215">
        <ele>362.88</ele>
        <time>2024-12-29T15:22:20.646Z</time>
      </trkpt>
      <trkpt lat="50.05447796545923" lon="6.029277965426445">
        <ele>362.82</ele>
        <time>2024-12-29T15:22:21.341Z</time>
      </trkpt>
      <trkpt lat="50.05461199209094" lon="6.029425989836454">
        <ele>362.85</ele>
        <time>2024-12-29T15:22:22.058Z</time>
      </trkpt>
      <trkpt lat="50.054733948782086" lon="6.029553981497884">
        <ele>362.75</ele>
        <time>2024-12-29T15:22:22.795Z</time>
      </trkpt>
      <trkpt lat="50.05478792823851" lon="6.029636962339282">
        <ele>362.61</ele>
        <time>2024-12-29T15:22:23.542Z</time>
      </trkpt>
      <trkpt lat="50.05480796098709" lon="6.029725978150964">
        <ele>362.41</ele>
        <time>2024-12-29T15:22:24.297Z</time>
      </trkpt>
      <trkpt lat="50.05480896681547" lon="6.029775934293866">
        <ele>362.21</ele>
        <time>2024-12-29T15:22:25.056Z</time>
      </trkpt>
      <trkpt lat="50.05469220690429" lon="6.030224533751607">
        <ele>361.88</ele>
        <time>2024-12-29T15:22:25.857Z</time>
      </trkpt>
      <trkpt lat="50.0545759499073" lon="6.030670953914523">
        <ele>361.49</ele>
        <time>2024-12-29T15:22:26.699Z</time>
      </trkpt>
      <trkpt lat="50.054559940472245" lon="6.030804980546236">
        <ele>361.17</ele>
        <time>2024-12-29T15:22:27.553Z</time>
      </trkpt>
      <trkpt lat="50.054733948782086" lon="6.03075192309916">
        <ele>360.8</ele>
        <time>2024-12-29T15:22:28.431Z</time>
      </trkpt>
      <trkpt lat="50.05474199540913" lon="6.030809925869107">
        <ele>360.46</ele>
        <time>2024-12-29T15:22:29.314Z</time>
      </trkpt>
      <trkpt lat="50.054753981530666" lon="6.030855942517519">
        <ele>360.12</ele>
        <time>2024-12-29T15:22:30.201Z</time>
      </trkpt>
      <trkpt lat="50.05460285581648" lon="6.030992567539215">
        <ele>359.81</ele>
        <time>2024-12-29T15:22:31.112Z</time>
      </trkpt>
      <trkpt lat="50.054451981559396" lon="6.031128941103816">
        <ele>359.62</ele>
        <time>2024-12-29T15:22:32.046Z</time>
      </trkpt>
      <trkpt lat="50.05437092855573" lon="6.031188955530524">
        <ele>359.31</ele>
        <time>2024-12-29T15:22:32.992Z</time>
      </trkpt>
      <trkpt lat="50.05429297685623" lon="6.031247964128852">
        <ele>358.99</ele>
        <time>2024-12-29T15:22:33.949Z</time>
      </trkpt>
      <trkpt lat="50.05420396104455" lon="6.031284928321838">
        <ele>358.67</ele>
        <time>2024-12-29T15:22:34.919Z</time>
      </trkpt>
      <trkpt lat="50.05415257997811" lon="6.03128987364471">
        <ele>358.32</ele>
        <time>2024-12-29T15:22:35.896Z</time>
      </trkpt>
      <trkpt lat="50.05412098020315" lon="6.031292974948883">
        <ele>357.95</ele>
        <time>2024-12-29T15:22:36.877Z</time>
      </trkpt>
      <trkpt lat="50.05392995662987" lon="6.0312639735639095">
        <ele>357.56</ele>
        <time>2024-12-29T15:22:37.883Z</time>
      </trkpt>
      <trkpt lat="50.05382199771702" lon="6.031227931380272">
        <ele>357.16</ele>
        <time>2024-12-29T15:22:38.904Z</time>
      </trkpt>
      <trkpt lat="50.05356794223189" lon="6.031093988567591">
        <ele>356.66</ele>
        <time>2024-12-29T15:22:39.961Z</time>
      </trkpt>
      <trkpt lat="50.0534759927541" lon="6.031053923070431">
        <ele>356.19</ele>
        <time>2024-12-29T15:22:41.031Z</time>
      </trkpt>
      <trkpt lat="50.053420923650265" lon="6.030996926128864">
        <ele>355.73</ele>
        <time>2024-12-29T15:22:42.110Z</time>
      </trkpt>
      <trkpt lat="50.053378930315375" lon="6.03092391975224">
        <ele>355.28</ele>
        <time>2024-12-29T15:22:43.197Z</time>
      </trkpt>
      <trkpt lat="50.05335797555745" lon="6.03083498775959">
        <ele>354.85</ele>
        <time>2024-12-29T15:22:44.292Z</time>
      </trkpt>
      <trkpt lat="50.05335194058716" lon="6.030730968341231">
        <ele>354.46</ele>
        <time>2024-12-29T15:22:45.396Z</time>
      </trkpt>
      <trkpt lat="50.05336694419384" lon="6.0306269489228725">
        <ele>354.11</ele>
        <time>2024-12-29T15:22:46.509Z</time>
      </trkpt>
      <trkpt lat="50.05346769466996" lon="6.0303654335439205">
        <ele>353.76</ele>
        <time>2024-12-29T15:22:47.648Z</time>
      </trkpt>
      <trkpt lat="50.05356794223189" lon="6.030104923993349">
        <ele>353.49</ele>
        <time>2024-12-29T15:22:48.813Z</time>
      </trkpt>
      <trkpt lat="50.053545981645584" lon="6.030078940093517">
        <ele>353.32</ele>
        <time>2024-12-29T15:22:49.982Z</time>
      </trkpt>
      <trkpt lat="50.0535349175334" lon="6.03003996424377">
        <ele>353.26</ele>
        <time>2024-12-29T15:22:51.155Z</time>
      </trkpt>
      <trkpt lat="50.05353692919016" lon="6.02999797090888">
        <ele>353.33</ele>
        <time>2024-12-29T15:22:52.331Z</time>
      </trkpt>
      <trkpt lat="50.05345093086362" lon="6.02989193983376">
        <ele>353.47</ele>
        <time>2024-12-29T15:22:53.522Z</time>
      </trkpt>
      <trkpt lat="50.05359895527363" lon="6.029602931812406">
        <ele>353.82</ele>
        <time>2024-12-29T15:22:54.745Z</time>
      </trkpt>
      <trkpt lat="50.053675984963775" lon="6.029454991221428">
        <ele>354.39</ele>
        <time>2024-12-29T15:22:55.984Z</time>
      </trkpt>
      <trkpt lat="50.05360691808164" lon="6.0293499659746885">
        <ele>355.08</ele>
        <time>2024-12-29T15:22:57.236Z</time>
      </trkpt>
      <trkpt lat="50.05349895916879" lon="6.029206970706582">
        <ele>355.98</ele>
        <time>2024-12-29T15:22:58.507Z</time>
      </trkpt>
      <trkpt lat="50.053441962227225" lon="6.029143938794732">
        <ele>357.13</ele>
        <time>2024-12-29T15:22:59.787Z</time>
      </trkpt>
      <trkpt lat="50.05349292419851" lon="6.0289989318698645">
        <ele>358.43</ele>
        <time>2024-12-29T15:23:01.082Z</time>
      </trkpt>
      <trkpt lat="50.05352997221053" lon="6.02888192050159">
        <ele>359.93</ele>
        <time>2024-12-29T15:23:02.388Z</time>
      </trkpt>
      <trkpt lat="50.05356391891837" lon="6.028724927455187">
        <ele>361.65</ele>
        <time>2024-12-29T15:23:03.708Z</time>
      </trkpt>
      <trkpt lat="50.05334096029401" lon="6.028897929936647">
        <ele>363.74</ele>
        <time>2024-12-29T15:23:05.061Z</time>
      </trkpt>
      <trkpt lat="50.05314230918884" lon="6.029082080349326">
        <ele>365.77</ele>
        <time>2024-12-29T15:23:06.445Z</time>
      </trkpt>
      <trkpt lat="50.052943993359804" lon="6.02926597930491">
        <ele>368.15</ele>
        <time>2024-12-29T15:23:07.860Z</time>
      </trkpt>
      <trkpt lat="50.05274693481624" lon="6.029470916837454">
        <ele>371.15</ele>
        <time>2024-12-29T15:23:09.307Z</time>
      </trkpt>
      <trkpt lat="50.05267694592476" lon="6.029573930427432">
        <ele>373.64</ele>
        <time>2024-12-29T15:23:10.767Z</time>
      </trkpt>
      <trkpt lat="50.05263696424663" lon="6.029687924310565">
        <ele>376.03</ele>
        <time>2024-12-29T15:23:12.238Z</time>
      </trkpt>
      <trkpt lat="50.05258399061859" lon="6.029921947047114">
        <ele>378.43</ele>
        <time>2024-12-29T15:23:13.730Z</time>
      </trkpt>
      <trkpt lat="50.052555995061994" lon="6.030117999762297">
        <ele>381.0</ele>
        <time>2024-12-29T15:23:15.239Z</time>
      </trkpt>
      <trkpt lat="50.05251098424196" lon="6.030549919232726">
        <ele>383.75</ele>
        <time>2024-12-29T15:23:16.786Z</time>
      </trkpt>
      <trkpt lat="50.05239799618721" lon="6.030882932245731">
        <ele>386.78</ele>
        <time>2024-12-29T15:23:18.365Z</time>
      </trkpt>
      <trkpt lat="50.052410988137126" lon="6.030910927802324">
        <ele>388.88</ele>
        <time>2024-12-29T15:23:19.947Z</time>
      </trkpt>
      <trkpt lat="50.05241199396551" lon="6.030934983864427">
        <ele>390.91</ele>
        <time>2024-12-29T15:23:21.531Z</time>
      </trkpt>
      <trkpt lat="50.05240092985332" lon="6.030989969149232">
        <ele>392.85</ele>
        <time>2024-12-29T15:23:23.120Z</time>
      </trkpt>
      <trkpt lat="50.052406964823604" lon="6.031136987730861">
        <ele>394.59</ele>
        <time>2024-12-29T15:23:24.722Z</time>
      </trkpt>
      <trkpt lat="50.052413921803236" lon="6.031179986894131">
        <ele>396.1</ele>
        <time>2024-12-29T15:23:26.328Z</time>
      </trkpt>
      <trkpt lat="50.05244392901659" lon="6.031179986894131">
        <ele>397.29</ele>
        <time>2024-12-29T15:23:27.938Z</time>
      </trkpt>
      <trkpt lat="50.052453987300396" lon="6.031187949702144">
        <ele>398.48</ele>
        <time>2024-12-29T15:23:29.549Z</time>
      </trkpt>
      <trkpt lat="50.05248298868537" lon="6.031316947191954">
        <ele>399.47</ele>
        <time>2024-12-29T15:23:31.172Z</time>
      </trkpt>
      <trkpt lat="50.052538979798555" lon="6.031472934409976">
        <ele>400.2</ele>
        <time>2024-12-29T15:23:32.810Z</time>
      </trkpt>
      <trkpt lat="50.05257393233478" lon="6.031681979075074">
        <ele>401.26</ele>
        <time>2024-12-29T15:23:34.467Z</time>
      </trkpt>
      <trkpt lat="50.05262992344797" lon="6.031921952962875">
        <ele>402.3</ele>
        <time>2024-12-29T15:23:36.146Z</time>
      </trkpt>
      <trkpt lat="50.05272497422993" lon="6.032174918800592">
        <ele>403.22</ele>
        <time>2024-12-29T15:23:37.850Z</time>
      </trkpt>
      <trkpt lat="50.052859922870994" lon="6.032413970679045">
        <ele>403.82</ele>
        <time>2024-12-29T15:23:39.581Z</time>
      </trkpt>
      <trkpt lat="50.05301699973643" lon="6.032613962888718">
        <ele>404.47</ele>
        <time>2024-12-29T15:23:41.339Z</time>
      </trkpt>
      <trkpt lat="50.05323392339051" lon="6.032774979248643">
        <ele>404.87</ele>
        <time>2024-12-29T15:23:43.129Z</time>
      </trkpt>
      <trkpt lat="50.0534709636122" lon="6.032908922061324">
        <ele>405.19</ele>
        <time>2024-12-29T15:23:44.953Z</time>
      </trkpt>
      <trkpt lat="50.05363097414374" lon="6.032987963408232">
        <ele>405.69</ele>
        <time>2024-12-29T15:23:46.800Z</time>
      </trkpt>
      <trkpt lat="50.05364991724491" lon="6.0329909808933735">
        <ele>405.97</ele>
        <time>2024-12-29T15:23:48.649Z</time>
      </trkpt>
      <trkpt lat="50.053765922784805" lon="6.0330139473080635">
        <ele>406.25</ele>
        <time>2024-12-29T15:23:50.514Z</time>
      </trkpt>
      <trkpt lat="50.05396298132837" lon="6.033019982278347">
        <ele>406.52</ele>
        <time>2024-12-29T15:23:52.405Z</time>
      </trkpt>
      <trkpt lat="50.05415593273938" lon="6.032986957579851">
        <ele>406.77</ele>
        <time>2024-12-29T15:23:54.322Z</time>
      </trkpt>
      <trkpt lat="50.0543169490993" lon="6.032926943153143">
        <ele>406.88</ele>
        <time>2024-12-29T15:23:56.261Z</time>
      </trkpt>
      <trkpt lat="50.05447796545923" lon="6.032866928726435">
        <ele>406.98</ele>
        <time>2024-12-29T15:23:58.222Z</time>
      </trkpt>
      <trkpt lat="50.05475792102516" lon="6.032750923186541">
        <ele>406.89</ele>
        <time>2024-12-29T15:24:00.222Z</time>
      </trkpt>
      <trkpt lat="50.054964954033494" lon="6.0327609814703465">
        <ele>407.03</ele>
        <time>2024-12-29T15:24:02.249Z</time>
      </trkpt>
      <trkpt lat="50.05515296012163" lon="6.032742960378528">
        <ele>407.13</ele>
        <time>2024-12-29T15:24:04.302Z</time>
      </trkpt>
      <trkpt lat="50.05522797815502" lon="6.032745977863669">
        <ele>407.27</ele>
        <time>2024-12-29T15:24:06.365Z</time>
      </trkpt>
      <trkpt lat="50.05529897287488" lon="6.032715970650315">
        <ele>407.31</ele>
        <time>2024-12-29T15:24:08.437Z</time>
      </trkpt>
      <trkpt lat="50.05536996759474" lon="6.032691998407245">
        <ele>407.38</ele>
        <time>2024-12-29T15:24:10.519Z</time>
      </trkpt>
      <trkpt lat="50.055611953139305" lon="6.032500974833965">
        <ele>407.37</ele>
        <time>2024-12-29T15:24:12.637Z</time>
      </trkpt>
      <trkpt lat="50.0556949339807" lon="6.032467950135469">
        <ele>407.52</ele>
        <time>2024-12-29T15:24:14.767Z</time>
      </trkpt>
      <trkpt lat="50.05598897114396" lon="6.032437942922115">
        <ele>408.22</ele>
        <time>2024-12-29T15:24:16.936Z</time>
      </trkpt>
      <trkpt lat="50.05609894171357" lon="6.032336940988898">
        <ele>408.35</ele>
        <time>2024-12-29T15:24:19.122Z</time>
      </trkpt>
      <trkpt lat="50.05614663474262" lon="6.032253289595246">
        <ele>408.38</ele>
        <time>2024-12-29T15:24:21.318Z</time>
      </trkpt>
      <trkpt lat="50.05618795752525" lon="6.032180953770876">
        <ele>408.41</ele>
        <time>2024-12-29T15:24:23.522Z</time>
      </trkpt>
      <trkpt lat="50.05622995086014" lon="6.032074922695756">
        <ele>408.36</ele>
        <time>2024-12-29T15:24:25.737Z</time>
      </trkpt>
      <trkpt lat="50.05636892281473" lon="6.031855987384915">
        <ele>408.5</ele>
        <time>2024-12-29T15:24:27.978Z</time>
      </trkpt>
      <trkpt lat="50.05645592696965" lon="6.031657923012972">
        <ele>408.49</ele>
        <time>2024-12-29T15:24:30.240Z</time>
      </trkpt>
      <trkpt lat="50.05649699829519" lon="6.031546946614981">
        <ele>408.39</ele>
        <time>2024-12-29T15:24:32.513Z</time>
      </trkpt>
      <trkpt lat="50.056649297475815" lon="6.031137742102146">
        <ele>408.19</ele>
        <time>2024-12-29T15:24:34.826Z</time>
      </trkpt>
      <trkpt lat="50.05680159665644" lon="6.030728537589312">
        <ele>407.91</ele>
        <time>2024-12-29T15:24:37.180Z</time>
      </trkpt>
      <trkpt lat="50.05695297382772" lon="6.03032193146646">
        <ele>407.4</ele>
        <time>2024-12-29T15:24:39.574Z</time>
      </trkpt>
      <trkpt lat="50.05705020390451" lon="6.030036862939596">
        <ele>406.99</ele>
        <time>2024-12-29T15:24:41.996Z</time>
      </trkpt>
      <trkpt lat="50.05714693106711" lon="6.029752967879176">
        <ele>406.59</ele>
        <time>2024-12-29T15:24:44.446Z</time>
      </trkpt>
      <trkpt lat="50.057255644351244" lon="6.029518023133278">
        <ele>406.26</ele>
        <time>2024-12-29T15:24:46.921Z</time>
      </trkpt>
      <trkpt lat="50.05736393854022" lon="6.029283916577697">
        <ele>405.94</ele>
        <time>2024-12-29T15:24:49.420Z</time>
      </trkpt>
      <trkpt lat="50.057439962401986" lon="6.029118960723281">
        <ele>405.52</ele>
        <time>2024-12-29T15:24:51.937Z</time>
      </trkpt>
      <trkpt lat="50.057661999017" lon="6.028785947710276">
        <ele>405.48</ele>
        <time>2024-12-29T15:24:54.495Z</time>
      </trkpt>
      <trkpt lat="50.05776266567409" lon="6.028576567769051">
        <ele>404.81</ele>
        <time>2024-12-29T15:24:57.075Z</time>
      </trkpt>
      <trkpt lat="50.057862997055054" lon="6.028367942199111">
        <ele>404.24</ele>
        <time>2024-12-29T15:24:59.678Z</time>
      </trkpt>
      <trkpt lat="50.057867942377925" lon="6.0283109452575445">
        <ele>403.46</ele>
        <time>2024-12-29T15:25:02.286Z</time>
      </trkpt>
      <trkpt lat="50.05785092711449" lon="6.0282729752361774">
        <ele>402.55</ele>
        <time>2024-12-29T15:25:04.898Z</time>
      </trkpt>
      <trkpt lat="50.05798696540296" lon="6.027967957779765">
        <ele>401.56</ele>
        <time>2024-12-29T15:25:07.542Z</time>
      </trkpt>
      <trkpt lat="50.058083944022655" lon="6.027632933109999">
        <ele>400.36</ele>
        <time>2024-12-29T15:25:10.217Z</time>
      </trkpt>
      <trkpt lat="50.05810992792249" lon="6.027530925348401">
        <ele>399.31</ele>
        <time>2024-12-29T15:25:12.902Z</time>
      </trkpt>
      <trkpt lat="50.05819693207741" lon="6.027351971715689">
        <ele>398.22</ele>
        <time>2024-12-29T15:25:15.606Z</time>
      </trkpt>
      <trkpt lat="50.0583269353956" lon="6.0269989259541035">
        <ele>397.07</ele>
        <time>2024-12-29T15:25:18.345Z</time>
      </trkpt>
      <trkpt lat="50.0584339722991" lon="6.026757946237922">
        <ele>395.96</ele>
        <time>2024-12-29T15:25:21.109Z</time>
      </trkpt>
      <trkpt lat="50.058471942320466" lon="6.026591984555125">
        <ele>394.65</ele>
        <time>2024-12-29T15:25:23.888Z</time>
      </trkpt>
      <trkpt lat="50.058617955073714" lon="6.026460975408554">
        <ele>393.54</ele>
        <time>2024-12-29T15:25:26.690Z</time>
      </trkpt>
      <trkpt lat="50.05873312242329" lon="6.026268191635609">
        <ele>392.21</ele>
        <time>2024-12-29T15:25:29.514Z</time>
      </trkpt>
      <trkpt lat="50.05884787067771" lon="6.026075910776854">
        <ele>390.66</ele>
        <time>2024-12-29T15:25:32.361Z</time>
      </trkpt>
      <trkpt lat="50.05884787067771" lon="6.026075994595885">
        <ele>389.27</ele>
        <time>2024-12-29T15:25:35.208Z</time>
      </trkpt>
      <trkpt lat="50.05884795449674" lon="6.026075994595885">
        <ele>387.85</ele>
        <time>2024-12-29T15:25:38.055Z</time>
      </trkpt>
      <trkpt lat="50.05895792506635" lon="6.025832919403911">
        <ele>386.31</ele>
        <time>2024-12-29T15:25:40.927Z</time>
      </trkpt>
      <trkpt lat="50.05903897807002" lon="6.025724960491061">
        <ele>384.99</ele>
        <time>2024-12-29T15:25:43.814Z</time>
      </trkpt>
      <trkpt lat="50.059154983609915" lon="6.025537960231304">
        <ele>383.28</ele>
        <time>2024-12-29T15:25:46.723Z</time>
      </trkpt>
      <trkpt lat="50.05936595611274" lon="6.025262949988246">
        <ele>381.54</ele>
        <time>2024-12-29T15:25:49.669Z</time>
      </trkpt>
      <trkpt lat="50.059413984417915" lon="6.025171922519803">
        <ele>380.1</ele>
        <time>2024-12-29T15:25:52.625Z</time>
      </trkpt>
      <trkpt lat="50.05964498966932" lon="6.025106962770224">
        <ele>378.82</ele>
        <time>2024-12-29T15:25:55.612Z</time>
      </trkpt>
      <trkpt lat="50.05981296300888" lon="6.025113919749856">
        <ele>377.81</ele>
        <time>2024-12-29T15:25:58.622Z</time>
      </trkpt>
      <trkpt lat="50.05998345091939" lon="6.02505742572248">
        <ele>376.75</ele>
        <time>2024-12-29T15:26:01.655Z</time>
      </trkpt>
      <trkpt lat="50.0601539388299" lon="6.025000931695104">
        <ele>375.84</ele>
        <time>2024-12-29T15:26:04.711Z</time>
      </trkpt>
      <trkpt lat="50.06019098684192" lon="6.025002943351865">
        <ele>375.33</ele>
        <time>2024-12-29T15:26:07.772Z</time>
      </trkpt>
      <trkpt lat="50.06025996990502" lon="6.025007972493768">
        <ele>374.99</ele>
        <time>2024-12-29T15:26:10.842Z</time>
      </trkpt>
      <trkpt lat="50.06036994047463" lon="6.02505499497056">
        <ele>374.9</ele>
        <time>2024-12-29T15:26:13.927Z</time>
      </trkpt>
      <trkpt lat="50.06045895628631" lon="6.025117943063378">
        <ele>375.06</ele>
        <time>2024-12-29T15:26:17.026Z</time>
      </trkpt>
      <trkpt lat="50.060533974319696" lon="6.02512096054852">
        <ele>375.35</ele>
        <time>2024-12-29T15:26:20.135Z</time>
      </trkpt>
      <trkpt lat="50.060742096975446" lon="6.025274517014623">
        <ele>376.11</ele>
        <time>2024-12-29T15:26:23.274Z</time>
      </trkpt>
      <trkpt lat="50.0609499681741" lon="6.025427989661694">
        <ele>376.9</ele>
        <time>2024-12-29T15:26:26.444Z</time>
      </trkpt>
      <trkpt lat="50.06099296733737" lon="6.025451961904764">
        <ele>377.56</ele>
        <time>2024-12-29T15:26:29.620Z</time>
      </trkpt>
      <trkpt lat="50.06099397316575" lon="6.025452967733145">
        <ele>378.25</ele>
        <time>2024-12-29T15:26:32.796Z</time>
      </trkpt>
      <trkpt lat="50.06118591874838" lon="6.025560926645994">
        <ele>379.19</ele>
        <time>2024-12-29T15:26:35.999Z</time>
      </trkpt>
      <trkpt lat="50.06144693121314" lon="6.025680955499411">
        <ele>380.1</ele>
        <time>2024-12-29T15:26:39.239Z</time>
      </trkpt>
      <trkpt lat="50.06163694895804" lon="6.025740969926119">
        <ele>380.84</ele>
        <time>2024-12-29T15:26:42.505Z</time>
      </trkpt>
      <trkpt lat="50.0618149805814" lon="6.025781957432628">
        <ele>381.51</ele>
        <time>2024-12-29T15:26:45.795Z</time>
      </trkpt>
      <trkpt lat="50.06196199916303" lon="6.025803918018937">
        <ele>382.27</ele>
        <time>2024-12-29T15:26:49.104Z</time>
      </trkpt>
      <trkpt lat="50.062057971954346" lon="6.025767959654331">
        <ele>382.88</ele>
        <time>2024-12-29T15:26:52.427Z</time>
      </trkpt>
      <trkpt lat="50.06212796084583" lon="6.025731917470694">
        <ele>383.5</ele>
        <time>2024-12-29T15:26:55.759Z</time>
      </trkpt>
      <trkpt lat="50.062164925038815" lon="6.025761924684048">
        <ele>384.28</ele>
        <time>2024-12-29T15:26:59.097Z</time>
      </trkpt>
      <trkpt lat="50.06228595972061" lon="6.025757985189557">
        <ele>385.03</ele>
        <time>2024-12-29T15:27:02.451Z</time>
      </trkpt>
      <trkpt lat="50.06254244595766" lon="6.025706436485052">
        <ele>385.7</ele>
        <time>2024-12-29T15:27:05.840Z</time>
      </trkpt>
      <trkpt lat="50.06279893219471" lon="6.025654971599579">
        <ele>386.14</ele>
        <time>2024-12-29T15:27:09.263Z</time>
      </trkpt>
      <trkpt lat="50.062977969646454" lon="6.02561691775918">
        <ele>386.43</ele>
        <time>2024-12-29T15:27:12.710Z</time>
      </trkpt>
      <trkpt lat="50.06302993744612" lon="6.025519939139485">
        <ele>386.51</ele>
        <time>2024-12-29T15:27:16.168Z</time>
      </trkpt>
      <trkpt lat="50.06320293992758" lon="6.0254754312336445">
        <ele>386.61</ele>
        <time>2024-12-29T15:27:19.650Z</time>
      </trkpt>
      <trkpt lat="50.06337594240904" lon="6.025430923327804">
        <ele>386.71</ele>
        <time>2024-12-29T15:27:23.155Z</time>
      </trkpt>
      <trkpt lat="50.06365799345076" lon="6.025332938879728">
        <ele>386.62</ele>
        <time>2024-12-29T15:27:26.699Z</time>
      </trkpt>
      <trkpt lat="50.06383694708347" lon="6.025279462337494">
        <ele>386.51</ele>
        <time>2024-12-29T15:27:30.267Z</time>
      </trkpt>
      <trkpt lat="50.06401598453522" lon="6.0252259857952595">
        <ele>386.35</ele>
        <time>2024-12-29T15:27:33.859Z</time>
      </trkpt>
      <trkpt lat="50.06427699699998" lon="6.025214921683073">
        <ele>386.2</ele>
        <time>2024-12-29T15:27:37.486Z</time>
      </trkpt>
      <trkpt lat="50.06453792564571" lon="6.025203941389918">
        <ele>385.86</ele>
        <time>2024-12-29T15:27:41.148Z</time>
      </trkpt>
      <trkpt lat="50.064743952825665" lon="6.025155996903777">
        <ele>385.44</ele>
        <time>2024-12-29T15:27:44.838Z</time>
      </trkpt>
      <trkpt lat="50.06492894142866" lon="6.025052983313799">
        <ele>384.87</ele>
        <time>2024-12-29T15:27:48.554Z</time>
      </trkpt>
      <trkpt lat="50.06509599275887" lon="6.024933960288763">
        <ele>384.29</ele>
        <time>2024-12-29T15:27:52.295Z</time>
      </trkpt>
      <trkpt lat="50.06526698358357" lon="6.02484242990613">
        <ele>383.65</ele>
        <time>2024-12-29T15:27:56.060Z</time>
      </trkpt>
      <trkpt lat="50.06543797440827" lon="6.024750983342528">
        <ele>382.81</ele>
        <time>2024-12-29T15:27:59.849Z</time>
      </trkpt>
      <trkpt lat="50.06563796661794" lon="6.02467093616724">
        <ele>381.98</ele>
        <time>2024-12-29T15:28:03.665Z</time>
      </trkpt>
      <trkpt lat="50.06584592163563" lon="6.024552918970585">
        <ele>380.75</ele>
        <time>2024-12-29T15:28:07.511Z</time>
      </trkpt>
      <trkpt lat="50.066117998212576" lon="6.02445594035089">
        <ele>379.43</ele>
        <time>2024-12-29T15:28:11.394Z</time>
      </trkpt>
      <trkpt lat="50.06633550859988" lon="6.0243539325892925">
        <ele>378.02</ele>
        <time>2024-12-29T15:28:15.307Z</time>
      </trkpt>
      <trkpt lat="50.06655293516815" lon="6.024251924827695">
        <ele>376.73</ele>
        <time>2024-12-29T15:28:19.251Z</time>
      </trkpt>
      <trkpt lat="50.066654942929745" lon="6.024204986169934">
        <ele>375.47</ele>
        <time>2024-12-29T15:28:23.209Z</time>
      </trkpt>
      <trkpt lat="50.06676499731839" lon="6.024204986169934">
        <ele>374.34</ele>
        <time>2024-12-29T15:28:27.182Z</time>
      </trkpt>
      <trkpt lat="50.06689592264593" lon="6.024226946756244">
        <ele>373.31</ele>
        <time>2024-12-29T15:28:31.172Z</time>
      </trkpt>
      <trkpt lat="50.066955937072635" lon="6.024301964789629">
        <ele>372.42</ele>
        <time>2024-12-29T15:28:35.173Z</time>
      </trkpt>
      <trkpt lat="50.067043947055936" lon="6.024208925664425">
        <ele>371.45</ele>
        <time>2024-12-29T15:28:39.188Z</time>
      </trkpt>
      <trkpt lat="50.06709197536111" lon="6.0241869650781155">
        <ele>370.68</ele>
        <time>2024-12-29T15:28:43.209Z</time>
      </trkpt>
      <trkpt lat="50.06712491624057" lon="6.024137930944562">
        <ele>370.05</ele>
        <time>2024-12-29T15:28:47.237Z</time>
      </trkpt>
      <trkpt lat="50.06718593649566" lon="6.024122927337885">
        <ele>369.6</ele>
        <time>2024-12-29T15:28:51.273Z</time>
      </trkpt>
      <trkpt lat="50.06723999977112" lon="6.024165926501155">
        <ele>369.36</ele>
        <time>2024-12-29T15:28:55.317Z</time>
      </trkpt>
      <trkpt lat="50.067255925387144" lon="6.024155952036381">
        <ele>369.21</ele>
        <time>2024-12-29T15:28:59.363Z</time>
      </trkpt>
      <trkpt lat="50.06725198589265" lon="6.024106917902827">
        <ele>369.18</ele>
        <time>2024-12-29T15:29:03.413Z</time>
      </trkpt>
      <trkpt lat="50.067276963964105" lon="6.0240579675883055">
        <ele>369.34</ele>
        <time>2024-12-29T15:29:07.469Z</time>
      </trkpt>
      <trkpt lat="50.067365979775786" lon="6.024091998115182">
        <ele>369.79</ele>
        <time>2024-12-29T15:29:11.537Z</time>
      </trkpt>
      <trkpt lat="50.067455833777785" lon="6.024088393896818">
        <ele>370.39</ele>
        <time>2024-12-29T15:29:15.617Z</time>
      </trkpt>
      <trkpt lat="50.067491959780455" lon="6.024086968973279">
        <ele>371.14</ele>
        <time>2024-12-29T15:29:19.702Z</time>
      </trkpt>
      <trkpt lat="50.0676794629544" lon="6.024120496585965">
        <ele>372.15</ele>
        <time>2024-12-29T15:29:23.812Z</time>
      </trkpt>
      <trkpt lat="50.06786696612835" lon="6.02415394037962">
        <ele>373.42</ele>
        <time>2024-12-29T15:29:27.947Z</time>
      </trkpt>
      <trkpt lat="50.067751966416836" lon="6.02419693954289">
        <ele>374.71</ele>
        <time>2024-12-29T15:29:32.098Z</time>
      </trkpt>
      <trkpt lat="50.06770393811166" lon="6.024250918999314">
        <ele>376.19</ele>
        <time>2024-12-29T15:29:36.257Z</time>
      </trkpt>
      <trkpt lat="50.067630261182785" lon="6.024508578702807">
        <ele>378.21</ele>
        <time>2024-12-29T15:29:40.440Z</time>
      </trkpt>
      <trkpt lat="50.067556919530034" lon="6.024764981120825">
        <ele>380.16</ele>
        <time>2024-12-29T15:29:44.647Z</time>
      </trkpt>
      <trkpt lat="50.06752599030733" lon="6.024832958355546">
        <ele>381.95</ele>
        <time>2024-12-29T15:29:48.861Z</time>
      </trkpt>
      <trkpt lat="50.067491959780455" lon="6.024865983054042">
        <ele>383.77</ele>
        <time>2024-12-29T15:29:53.081Z</time>
      </trkpt>
      <trkpt lat="50.067431945353746" lon="6.025040997192264">
        <ele>385.73</ele>
        <time>2024-12-29T15:29:57.318Z</time>
      </trkpt>
      <trkpt lat="50.06739892065525" lon="6.025168988853693">
        <ele>387.72</ele>
        <time>2024-12-29T15:30:01.567Z</time>
      </trkpt>
      <trkpt lat="50.06737536750734" lon="6.0254221223294735">
        <ele>389.89</ele>
        <time>2024-12-29T15:30:05.838Z</time>
      </trkpt>
      <trkpt lat="50.06735198199749" lon="6.025673998519778">
        <ele>392.07</ele>
        <time>2024-12-29T15:30:10.130Z</time>
      </trkpt>
      <trkpt lat="50.06728299893439" lon="6.026035929098725">
        <ele>394.24</ele>
        <time>2024-12-29T15:30:14.455Z</time>
      </trkpt>
      <trkpt lat="50.06720429286361" lon="6.02641143836081">
        <ele>396.49</ele>
        <time>2024-12-29T15:30:18.814Z</time>
      </trkpt>
      <trkpt lat="50.06712592206895" lon="6.026784935966134">
        <ele>398.81</ele>
        <time>2024-12-29T15:30:23.207Z</time>
      </trkpt>
      <trkpt lat="50.06714394316077" lon="6.027035973966122">
        <ele>401.21</ele>
        <time>2024-12-29T15:30:27.621Z</time>
      </trkpt>
      <trkpt lat="50.0671839248389" lon="6.027303943410516">
        <ele>403.61</ele>
        <time>2024-12-29T15:30:32.059Z</time>
      </trkpt>
      <trkpt lat="50.06732993759215" lon="6.0275019239634275">
        <ele>406.01</ele>
        <time>2024-12-29T15:30:36.523Z</time>
      </trkpt>
      <trkpt lat="50.067384922876954" lon="6.027576941996813">
        <ele>408.11</ele>
        <time>2024-12-29T15:30:40.997Z</time>
      </trkpt>
      <trkpt lat="50.06759195588529" lon="6.027818927541375">
        <ele>410.44</ele>
        <time>2024-12-29T15:30:45.505Z</time>
      </trkpt>
      <trkpt lat="50.06763897836208" lon="6.0278229508548975">
        <ele>412.29</ele>
        <time>2024-12-29T15:30:50.019Z</time>
      </trkpt>
      <trkpt lat="50.06766093894839" lon="6.027762936428189">
        <ele>413.97</ele>
        <time>2024-12-29T15:30:54.539Z</time>
      </trkpt>
      <trkpt lat="50.067686922848225" lon="6.0274009220302105">
        <ele>415.46</ele>
        <time>2024-12-29T15:30:59.091Z</time>
      </trkpt>
      <trkpt lat="50.06774199195206" lon="6.027070926502347">
        <ele>417.03</ele>
        <time>2024-12-29T15:31:03.672Z</time>
      </trkpt>
      <trkpt lat="50.06778004579246" lon="6.026719976216555">
        <ele>418.31</ele>
        <time>2024-12-29T15:31:08.284Z</time>
      </trkpt>
      <trkpt lat="50.067817931994796" lon="6.026370953768492">
        <ele>419.36</ele>
        <time>2024-12-29T15:31:12.926Z</time>
      </trkpt>
      <trkpt lat="50.06789814680815" lon="6.025948841124773">
        <ele>420.5</ele>
        <time>2024-12-29T15:31:17.606Z</time>
      </trkpt>
      <trkpt lat="50.06797794252634" lon="6.025528991594911">
        <ele>421.53</ele>
        <time>2024-12-29T15:31:22.323Z</time>
      </trkpt>
      <trkpt lat="50.06810492835939" lon="6.025230931118131">
        <ele>422.39</ele>
        <time>2024-12-29T15:31:27.071Z</time>
      </trkpt>
      <trkpt lat="50.068181958049536" lon="6.025122972205281">
        <ele>423.25</ele>
        <time>2024-12-29T15:31:31.833Z</time>
      </trkpt>
      <trkpt lat="50.06823593750596" lon="6.025093970820308">
        <ele>424.14</ele>
        <time>2024-12-29T15:31:36.603Z</time>
      </trkpt>
      <trkpt lat="50.06833995692432" lon="6.025101933628321">
        <ele>425.14</ele>
        <time>2024-12-29T15:31:41.386Z</time>
      </trkpt>
      <trkpt lat="50.06858370266855" lon="6.025198325514793">
        <ele>426.4</ele>
        <time>2024-12-29T15:31:46.203Z</time>
      </trkpt>
      <trkpt lat="50.068827364593744" lon="6.025294633582234">
        <ele>427.54</ele>
        <time>2024-12-29T15:31:51.054Z</time>
      </trkpt>
      <trkpt lat="50.06907094269991" lon="6.025390941649675">
        <ele>428.55</ele>
        <time>2024-12-29T15:31:55.938Z</time>
      </trkpt>
      <trkpt lat="50.069189965724945" lon="6.025429917499423">
        <ele>429.36</ele>
        <time>2024-12-29T15:32:00.838Z</time>
      </trkpt>
      <trkpt lat="50.06946103647351" lon="6.0255184303969145">
        <ele>429.98</ele>
        <time>2024-12-29T15:32:05.775Z</time>
      </trkpt>
      <trkpt lat="50.06973193958402" lon="6.025606943294406">
        <ele>430.56</ele>
        <time>2024-12-29T15:32:10.749Z</time>
      </trkpt>
      <trkpt lat="50.069919945672154" lon="6.025681961327791">
        <ele>431.3</ele>
        <time>2024-12-29T15:32:15.749Z</time>
      </trkpt>
      <trkpt lat="50.070090936496854" lon="6.025775922462344">
        <ele>432.25</ele>
        <time>2024-12-29T15:32:20.773Z</time>
      </trkpt>
      <trkpt lat="50.07025212049484" lon="6.025927551090717">
        <ele>433.31</ele>
        <time>2024-12-29T15:32:25.823Z</time>
      </trkpt>
      <trkpt lat="50.070412969216704" lon="6.026078928261995">
        <ele>434.45</ele>
        <time>2024-12-29T15:32:30.898Z</time>
      </trkpt>
      <trkpt lat="50.070499973371625" lon="6.026085969060659">
        <ele>435.28</ele>
        <time>2024-12-29T15:32:35.984Z</time>
      </trkpt>
      <trkpt lat="50.07057599723339" lon="6.026042969897389">
        <ele>435.98</ele>
        <time>2024-12-29T15:32:41.081Z</time>
      </trkpt>
      <trkpt lat="50.070776995271444" lon="6.02582897990942">
        <ele>436.66</ele>
        <time>2024-12-29T15:32:46.211Z</time>
      </trkpt>
      <trkpt lat="50.070974975824356" lon="6.025509964674711">
        <ele>436.74</ele>
        <time>2024-12-29T15:32:51.379Z</time>
      </trkpt>
      <trkpt lat="50.071059968322515" lon="6.025415919721127">
        <ele>436.85</ele>
        <time>2024-12-29T15:32:56.561Z</time>
      </trkpt>
      <trkpt lat="50.07132198661566" lon="6.025254987180233">
        <ele>436.87</ele>
        <time>2024-12-29T15:33:01.780Z</time>
      </trkpt>
      <trkpt lat="50.07149691693485" lon="6.025193966925144">
        <ele>436.88</ele>
        <time>2024-12-29T15:33:07.023Z</time>
      </trkpt>
      <trkpt lat="50.071746446192265" lon="6.025162618607283">
        <ele>436.79</ele>
        <time>2024-12-29T15:33:12.300Z</time>
      </trkpt>
      <trkpt lat="50.0717653054744" lon="6.025160271674395">
        <ele>436.55</ele>
        <time>2024-12-29T15:33:17.579Z</time>
      </trkpt>
      <trkpt lat="50.07203369401395" lon="6.025126660242677">
        <ele>436.06</ele>
        <time>2024-12-29T15:33:22.894Z</time>
      </trkpt>
      <trkpt lat="50.072301998734474" lon="6.025092964991927">
        <ele>435.36</ele>
        <time>2024-12-29T15:33:28.245Z</time>
      </trkpt>
      <trkpt lat="50.07248598150909" lon="6.02514392696321">
        <ele>434.71</ele>
        <time>2024-12-29T15:33:33.621Z</time>
      </trkpt>
      <trkpt lat="50.07270407862961" lon="6.025301506742835">
        <ele>434.25</ele>
        <time>2024-12-29T15:33:39.029Z</time>
      </trkpt>
      <trkpt lat="50.07292192429304" lon="6.0254589188843966">
        <ele>433.67</ele>
        <time>2024-12-29T15:33:44.469Z</time>
      </trkpt>
      <trkpt lat="50.07308905944228" lon="6.025564027950168">
        <ele>432.76</ele>
        <time>2024-12-29T15:33:49.933Z</time>
      </trkpt>
      <trkpt lat="50.07325594313443" lon="6.025668969377875">
        <ele>431.76</ele>
        <time>2024-12-29T15:33:55.421Z</time>
      </trkpt>
      <trkpt lat="50.073498263955116" lon="6.025784388184547">
        <ele>430.66</ele>
        <time>2024-12-29T15:34:00.943Z</time>
      </trkpt>
      <trkpt lat="50.073740500956774" lon="6.0258998069912195">
        <ele>429.7</ele>
        <time>2024-12-29T15:34:06.499Z</time>
      </trkpt>
      <trkpt lat="50.07398273795843" lon="6.026015225797892">
        <ele>428.63</ele>
        <time>2024-12-29T15:34:12.089Z</time>
      </trkpt>
      <trkpt lat="50.07422505877912" lon="6.026130644604564">
        <ele>427.26</ele>
        <time>2024-12-29T15:34:17.712Z</time>
      </trkpt>
      <trkpt lat="50.07446696050465" lon="6.026245979592204">
        <ele>425.73</ele>
        <time>2024-12-29T15:34:23.369Z</time>
      </trkpt>
      <trkpt lat="50.0746129732579" lon="6.026374977082014">
        <ele>424.44</ele>
        <time>2024-12-29T15:34:29.049Z</time>
      </trkpt>
      <trkpt lat="50.0747477542609" lon="6.026553763076663">
        <ele>423.35</ele>
        <time>2024-12-29T15:34:34.752Z</time>
      </trkpt>
      <trkpt lat="50.074748089537024" lon="6.026554182171822">
        <ele>420.8</ele>
        <time>2024-12-29T15:34:40.455Z</time>
      </trkpt>
      <trkpt lat="50.074882954359055" lon="6.0267329681664705">
        <ele>419.57</ele>
        <time>2024-12-29T15:34:46.182Z</time>
      </trkpt>
      <trkpt lat="50.075054951012135" lon="6.026978977024555">
        <ele>417.98</ele>
        <time>2024-12-29T15:34:51.940Z</time>
      </trkpt>
      <trkpt lat="50.075143966823816" lon="6.027164971455932">
        <ele>416.51</ele>
        <time>2024-12-29T15:34:57.718Z</time>
      </trkpt>
      <trkpt lat="50.075278747826815" lon="6.027467558160424">
        <ele>415.04</ele>
        <time>2024-12-29T15:35:03.528Z</time>
      </trkpt>
      <trkpt lat="50.07541294209659" lon="6.027768971398473">
        <ele>413.45</ele>
        <time>2024-12-29T15:35:09.369Z</time>
      </trkpt>
      <trkpt lat="50.07561896927655" lon="6.0281009785830975">
        <ele>411.92</ele>
        <time>2024-12-29T15:35:15.250Z</time>
      </trkpt>
      <trkpt lat="50.075841173529625" lon="6.028353190049529">
        <ele>410.21</ele>
        <time>2024-12-29T15:35:21.168Z</time>
      </trkpt>
      <trkpt lat="50.076062958687544" lon="6.028604982420802">
        <ele>408.35</ele>
        <time>2024-12-29T15:35:27.122Z</time>
      </trkpt>
      <trkpt lat="50.076322965323925" lon="6.028812937438488">
        <ele>406.36</ele>
        <time>2024-12-29T15:35:33.115Z</time>
      </trkpt>
      <trkpt lat="50.076494542881846" lon="6.028950065374374">
        <ele>404.43</ele>
        <time>2024-12-29T15:35:39.134Z</time>
      </trkpt>
      <trkpt lat="50.076665952801704" lon="6.029086941853166">
        <ele>402.38</ele>
        <time>2024-12-29T15:35:45.179Z</time>
      </trkpt>
      <trkpt lat="50.076732924208045" lon="6.029251981526613">
        <ele>400.43</ele>
        <time>2024-12-29T15:35:51.241Z</time>
      </trkpt>
      <trkpt lat="50.076750945299864" lon="6.029499918222427">
        <ele>398.51</ele>
        <time>2024-12-29T15:35:57.324Z</time>
      </trkpt>
      <trkpt lat="50.0767679605633" lon="6.029568985104561">
        <ele>396.58</ele>
        <time>2024-12-29T15:36:03.413Z</time>
      </trkpt>
      <trkpt lat="50.07685496471822" lon="6.029385924339294">
        <ele>394.59</ele>
        <time>2024-12-29T15:36:09.522Z</time>
      </trkpt>
      <trkpt lat="50.07700273767114" lon="6.029051318764687">
        <ele>392.5</ele>
        <time>2024-12-29T15:36:15.666Z</time>
      </trkpt>
      <trkpt lat="50.07714992389083" lon="6.0287179704755545">
        <ele>390.46</ele>
        <time>2024-12-29T15:36:21.844Z</time>
      </trkpt>
      <trkpt lat="50.07730792276561" lon="6.0284249391406775">
        <ele>388.45</ele>
        <time>2024-12-29T15:36:28.055Z</time>
      </trkpt>
      <trkpt lat="50.077378917485476" lon="6.028150934726">
        <ele>386.5</ele>
        <time>2024-12-29T15:36:34.292Z</time>
      </trkpt>
      <trkpt lat="50.07742661051452" lon="6.027883803471923">
        <ele>384.77</ele>
        <time>2024-12-29T15:36:40.552Z</time>
      </trkpt>
      <trkpt lat="50.07747396826744" lon="6.027617929503322">
        <ele>383.11</ele>
        <time>2024-12-29T15:36:46.836Z</time>
      </trkpt>
      <trkpt lat="50.077502969652414" lon="6.027430929243565">
        <ele>381.57</ele>
        <time>2024-12-29T15:36:53.137Z</time>
      </trkpt>
      <trkpt lat="50.07752291858196" lon="6.0271979961544275">
        <ele>380.15</ele>
        <time>2024-12-29T15:36:59.458Z</time>
      </trkpt>
      <trkpt lat="50.07754999212921" lon="6.0270139295607805">
        <ele>378.92</ele>
        <time>2024-12-29T15:37:05.795Z</time>
      </trkpt>
      <trkpt lat="50.07766691967845" lon="6.026642946526408">
        <ele>377.71</ele>
        <time>2024-12-29T15:37:12.168Z</time>
      </trkpt>
      <trkpt lat="50.07773095741868" lon="6.026477990671992">
        <ele>376.73</ele>
        <time>2024-12-29T15:37:18.557Z</time>
      </trkpt>
      <trkpt lat="50.07776599377394" lon="6.026434991508722">
        <ele>375.97</ele>
        <time>2024-12-29T15:37:24.952Z</time>
      </trkpt>
      <trkpt lat="50.07780195213854" lon="6.026440942659974">
        <ele>375.4</ele>
        <time>2024-12-29T15:37:31.352Z</time>
      </trkpt>
      <trkpt lat="50.077866995707154" lon="6.026503974571824">
        <ele>375.01</ele>
        <time>2024-12-29T15:37:37.762Z</time>
      </trkpt>
      <trkpt lat="50.07792063988745" lon="6.026549655944109">
        <ele>374.75</ele>
        <time>2024-12-29T15:37:44.180Z</time>
      </trkpt>
      <trkpt lat="50.077933967113495" lon="6.0265609715133905">
        <ele>374.62</ele>
        <time>2024-12-29T15:37:50.600Z</time>
      </trkpt>
      <trkpt lat="50.07794695906341" lon="6.026643952354789">
        <ele>374.65</ele>
        <time>2024-12-29T15:37:57.028Z</time>
      </trkpt>
      <trkpt lat="50.07799297571182" lon="6.026767920702696">
        <ele>374.82</ele>
        <time>2024-12-29T15:38:03.468Z</time>
      </trkpt>
      <trkpt lat="50.078020971268415" lon="6.026759957894683">
        <ele>375.03</ele>
        <time>2024-12-29T15:38:09.912Z</time>
      </trkpt>
      <trkpt lat="50.07805692963302" lon="6.026785941794515">
        <ele>375.33</ele>
        <time>2024-12-29T15:38:16.361Z</time>
      </trkpt>
      <trkpt lat="50.078085931017995" lon="6.0268389992415905">
        <ele>375.72</ele>
        <time>2024-12-29T15:38:22.816Z</time>
      </trkpt>
      <trkpt lat="50.07811199873686" lon="6.0269479639828205">
        <ele>376.16</ele>
        <time>2024-12-29T15:38:29.281Z</time>
      </trkpt>
      <trkpt lat="50.07817695848644" lon="6.027074949815869">
        <ele>376.67</ele>
        <time>2024-12-29T15:38:35.760Z</time>
      </trkpt>
      <trkpt lat="50.07822792045772" lon="6.027092970907688">
        <ele>377.15</ele>
        <time>2024-12-29T15:38:42.246Z</time>
      </trkpt>
      <trkpt lat="50.07827192544937" lon="6.027173940092325">
        <ele>377.7</ele>
        <time>2024-12-29T15:38:48.741Z</time>
      </trkpt>
      <trkpt lat="50.078322971239686" lon="6.027208976447582">
        <ele>378.22</ele>
        <time>2024-12-29T15:38:55.243Z</time>
      </trkpt>
      <trkpt lat="50.07833797484636" lon="6.0272489581257105">
        <ele>378.71</ele>
        <time>2024-12-29T15:39:01.749Z</time>
      </trkpt>
      <trkpt lat="50.07836697623134" lon="6.027279971167445">
        <ele>379.16</ele>
        <time>2024-12-29T15:39:08.260Z</time>
      </trkpt>
      <trkpt lat="50.07845791988075" lon="6.027450961992145">
        <ele>379.73</ele>
        <time>2024-12-29T15:39:14.790Z</time>
      </trkpt>
      <trkpt lat="50.078639974817634" lon="6.027576941996813">
        <ele>380.1</ele>
        <time>2024-12-29T15:39:21.347Z</time>
      </trkpt>
      <trkpt lat="50.07865598425269" lon="6.027605943381786">
        <ele>380.39</ele>
        <time>2024-12-29T15:39:27.907Z</time>
      </trkpt>
      <trkpt lat="50.07882898673415" lon="6.027718931436539">
        <ele>380.52</ele>
        <time>2024-12-29T15:39:34.492Z</time>
      </trkpt>
      <trkpt lat="50.07897458039224" lon="6.027840552851558">
        <ele>380.56</ele>
        <time>2024-12-29T15:39:41.099Z</time>
      </trkpt>
      <trkpt lat="50.079119922593236" lon="6.027961922809482">
        <ele>380.5</ele>
        <time>2024-12-29T15:39:47.728Z</time>
      </trkpt>
      <trkpt lat="50.079159988090396" lon="6.027970975264907">
        <ele>380.45</ele>
        <time>2024-12-29T15:39:54.363Z</time>
      </trkpt>
      <trkpt lat="50.07929761894047" lon="6.028136098757386">
        <ele>380.3</ele>
        <time>2024-12-29T15:40:01.021Z</time>
      </trkpt>
      <trkpt lat="50.079434998333454" lon="6.02830097079277">
        <ele>380.16</ele>
        <time>2024-12-29T15:40:07.702Z</time>
      </trkpt>
      <trkpt lat="50.07957992143929" lon="6.028513954952359">
        <ele>380.1</ele>
        <time>2024-12-29T15:40:14.410Z</time>
      </trkpt>
      <trkpt lat="50.07976314984262" lon="6.028696093708277">
        <ele>380.01</ele>
        <time>2024-12-29T15:40:21.147Z</time>
      </trkpt>
      <trkpt lat="50.07994595915079" lon="6.028877981007099">
        <ele>379.83</ele>
        <time>2024-12-29T15:40:27.913Z</time>
      </trkpt>
      <trkpt lat="50.08011359721422" lon="6.029044110327959">
        <ele>379.56</ele>
        <time>2024-12-29T15:40:34.705Z</time>
      </trkpt>
      <trkpt lat="50.08028098382056" lon="6.029209988191724">
        <ele>379.21</ele>
        <time>2024-12-29T15:40:41.524Z</time>
      </trkpt>
      <trkpt lat="50.08039698936045" lon="6.029388941824436">
        <ele>378.94</ele>
        <time>2024-12-29T15:40:48.364Z</time>
      </trkpt>
      <trkpt lat="50.08050897158682" lon="6.0295299254357815">
        <ele>378.69</ele>
        <time>2024-12-29T15:40:55.224Z</time>
      </trkpt>
      <trkpt lat="50.08051995187998" lon="6.029508970677853">
        <ele>378.46</ele>
        <time>2024-12-29T15:41:02.086Z</time>
      </trkpt>
      <trkpt lat="50.08057426661253" lon="6.029415763914585">
        <ele>378.18</ele>
        <time>2024-12-29T15:41:08.959Z</time>
      </trkpt>
      <trkpt lat="50.080596981570125" lon="6.029376955702901">
        <ele>378.0</ele>
        <time>2024-12-29T15:41:15.836Z</time>
      </trkpt>
      <trkpt lat="50.08063394576311" lon="6.029237983748317">
        <ele>377.81</ele>
        <time>2024-12-29T15:41:22.726Z</time>
      </trkpt>
      <trkpt lat="50.08074098266661" lon="6.029001949355006">
        <ele>377.7</ele>
        <time>2024-12-29T15:41:29.641Z</time>
      </trkpt>
      <trkpt lat="50.080859921872616" lon="6.028635995462537">
        <ele>377.87</ele>
        <time>2024-12-29T15:41:36.591Z</time>
      </trkpt>
      <trkpt lat="50.08086394518614" lon="6.028584949672222">
        <ele>377.89</ele>
        <time>2024-12-29T15:41:43.546Z</time>
      </trkpt>
      <trkpt lat="50.08091893047094" lon="6.0283969435840845">
        <ele>378.05</ele>
        <time>2024-12-29T15:41:50.518Z</time>
      </trkpt>
      <trkpt lat="50.08087492547929" lon="6.02812796831131">
        <ele>378.12</ele>
        <time>2024-12-29T15:41:57.514Z</time>
      </trkpt>
      <trkpt lat="50.08076721802354" lon="6.027860417962074">
        <ele>378.14</ele>
        <time>2024-12-29T15:42:04.537Z</time>
      </trkpt>
      <trkpt lat="50.08065992966294" lon="6.027593957260251">
        <ele>378.2</ele>
        <time>2024-12-29T15:42:11.587Z</time>
      </trkpt>
      <trkpt lat="50.08053923025727" lon="6.027377117425203">
        <ele>378.33</ele>
        <time>2024-12-29T15:42:18.662Z</time>
      </trkpt>
      <trkpt lat="50.08041894994676" lon="6.027160948142409">
        <ele>378.54</ele>
        <time>2024-12-29T15:42:25.762Z</time>
      </trkpt>
      <trkpt lat="50.0802599452436" lon="6.02679792791605">
        <ele>378.91</ele>
        <time>2024-12-29T15:42:32.899Z</time>
      </trkpt>
      <trkpt lat="50.080175790935755" lon="6.026562480255961">
        <ele>379.11</ele>
        <time>2024-12-29T15:42:40.059Z</time>
      </trkpt>
      <trkpt lat="50.08009197190404" lon="6.026327954605222">
        <ele>379.36</ele>
        <time>2024-12-29T15:42:47.242Z</time>
      </trkpt>
      <trkpt lat="50.08002399466932" lon="6.026194933801889">
        <ele>379.54</ele>
        <time>2024-12-29T15:42:54.440Z</time>
      </trkpt>
      <trkpt lat="50.07989692501724" lon="6.026019919663668">
        <ele>379.61</ele>
        <time>2024-12-29T15:43:01.661Z</time>
      </trkpt>
      <trkpt lat="50.07977924309671" lon="6.025802074000239">
        <ele>379.91</ele>
        <time>2024-12-29T15:43:08.906Z</time>
      </trkpt>
      <trkpt lat="50.07966198027134" lon="6.0255849827080965">
        <ele>380.25</ele>
        <time>2024-12-29T15:43:16.175Z</time>
      </trkpt>
      <trkpt lat="50.07962292060256" lon="6.025512982159853">
        <ele>380.54</ele>
        <time>2024-12-29T15:43:23.453Z</time>
      </trkpt>
      <trkpt lat="50.079397950321436" lon="6.025203941389918">
        <ele>380.89</ele>
        <time>2024-12-29T15:43:30.771Z</time>
      </trkpt>
      <trkpt lat="50.07926484569907" lon="6.025057341903448">
        <ele>381.14</ele>
        <time>2024-12-29T15:43:38.110Z</time>
      </trkpt>
      <trkpt lat="50.0791319925338" lon="6.024910993874073">
        <ele>381.37</ele>
        <time>2024-12-29T15:43:45.471Z</time>
      </trkpt>
      <trkpt lat="50.07895706221461" lon="6.024672361090779">
        <ele>381.81</ele>
        <time>2024-12-29T15:43:52.863Z</time>
      </trkpt>
      <trkpt lat="50.078782215714455" lon="6.024433728307486">
        <ele>382.38</ele>
        <time>2024-12-29T15:44:00.286Z</time>
      </trkpt>
      <trkpt lat="50.07860795594752" lon="6.024195933714509">
        <ele>382.89</ele>
        <time>2024-12-29T15:44:07.740Z</time>
      </trkpt>
      <trkpt lat="50.07848583161831" lon="6.024023266509175">
        <ele>383.43</ele>
        <time>2024-12-29T15:44:15.216Z</time>
      </trkpt>
      <trkpt lat="50.078363958746195" lon="6.0238509345799685">
        <ele>384.05</ele>
        <time>2024-12-29T15:44:22.714Z</time>
      </trkpt>
      <trkpt lat="50.07817595265806" lon="6.023605931550264">
        <ele>384.8</ele>
        <time>2024-12-29T15:44:30.245Z</time>
      </trkpt>
      <trkpt lat="50.078042931854725" lon="6.023457990959287">
        <ele>385.79</ele>
        <time>2024-12-29T15:44:37.798Z</time>
      </trkpt>
      <trkpt lat="50.077976966276765" lon="6.023348942399025">
        <ele>386.93</ele>
        <time>2024-12-29T15:44:45.364Z</time>
      </trkpt>
      <trkpt lat="50.07793094962835" lon="6.02320896461606">
        <ele>388.25</ele>
        <time>2024-12-29T15:44:52.943Z</time>
      </trkpt>
      <trkpt lat="50.07777437567711" lon="6.023133946582675">
        <ele>389.56</ele>
        <time>2024-12-29T15:45:00.544Z</time>
      </trkpt>
      <trkpt lat="50.07761796936393" lon="6.02305892854929">
        <ele>391.02</ele>
        <time>2024-12-29T15:45:08.167Z</time>
      </trkpt>
      <trkpt lat="50.07759299129248" lon="6.022915933281183">
        <ele>392.77</ele>
        <time>2024-12-29T15:45:15.803Z</time>
      </trkpt>
      <trkpt lat="50.07762392051518" lon="6.02260697633028">
        <ele>394.86</ele>
        <time>2024-12-29T15:45:23.466Z</time>
      </trkpt>
      <trkpt lat="50.077783931046724" lon="6.022193999961019">
        <ele>397.03</ele>
        <time>2024-12-29T15:45:31.170Z</time>
      </trkpt>
      <trkpt lat="50.077771442011" lon="6.021849000826478">
        <ele>399.19</ele>
        <time>2024-12-29T15:45:38.904Z</time>
      </trkpt>
      <trkpt lat="50.07775895297527" lon="6.021505929529667">
        <ele>401.34</ele>
        <time>2024-12-29T15:45:46.667Z</time>
      </trkpt>
      <trkpt lat="50.077571952715516" lon="6.021267967298627">
        <ele>403.44</ele>
        <time>2024-12-29T15:45:54.462Z</time>
      </trkpt>
      <trkpt lat="50.07746399380267" lon="6.02110393345356">
        <ele>405.53</ele>
        <time>2024-12-29T15:46:02.278Z</time>
      </trkpt>
      <trkpt lat="50.07760598324239" lon="6.021035956218839">
        <ele>407.74</ele>
        <time>2024-12-29T15:46:10.113Z</time>
      </trkpt>
      <trkpt lat="50.07774797268212" lon="6.020933948457241">
        <ele>409.96</ele>
        <time>2024-12-29T15:46:17.969Z</time>
      </trkpt>
      <trkpt lat="50.07797218859196" lon="6.020681234076619">
        <ele>412.3</ele>
        <time>2024-12-29T15:46:25.862Z</time>
      </trkpt>
      <trkpt lat="50.07819598540664" lon="6.020428938791156">
        <ele>414.68</ele>
        <time>2024-12-29T15:46:33.792Z</time>
      </trkpt>
      <trkpt lat="50.07833294570446" lon="6.020236993208528">
        <ele>416.94</ele>
        <time>2024-12-29T15:46:41.747Z</time>
      </trkpt>
      <trkpt lat="50.07856696844101" lon="6.0199439618736506">
        <ele>419.22</ele>
        <time>2024-12-29T15:46:49.742Z</time>
      </trkpt>
      <trkpt lat="50.078720608726144" lon="6.019765259698033">
        <ele>421.47</ele>
        <time>2024-12-29T15:46:57.762Z</time>
      </trkpt>
      <trkpt lat="50.07887399755418" lon="6.019586976617575">
        <ele>423.71</ele>
        <time>2024-12-29T15:47:05.808Z</time>
      </trkpt>
      <trkpt lat="50.07893292233348" lon="6.019538948312402">
        <ele>425.7</ele>
        <time>2024-12-29T15:47:13.863Z</time>
      </trkpt>
      <trkpt lat="50.07901498116553" lon="6.019500978291035">
        <ele>427.62</ele>
        <time>2024-12-29T15:47:21.929Z</time>
      </trkpt>
      <trkpt lat="50.07920692674816" lon="6.019513970240951">
        <ele>429.57</ele>
        <time>2024-12-29T15:47:30.021Z</time>
      </trkpt>
      <trkpt lat="50.07932092063129" lon="6.019570967182517">
        <ele>431.26</ele>
        <time>2024-12-29T15:47:38.129Z</time>
      </trkpt>
      <trkpt lat="50.07953893393278" lon="6.019824938848615">
        <ele>432.68</ele>
        <time>2024-12-29T15:47:46.273Z</time>
      </trkpt>
      <trkpt lat="50.07975594140589" lon="6.0201239213347435">
        <ele>433.89</ele>
        <time>2024-12-29T15:47:54.456Z</time>
      </trkpt>
      <trkpt lat="50.079864989966154" lon="6.020248979330063">
        <ele>435.21</ele>
        <time>2024-12-29T15:48:02.657Z</time>
      </trkpt>
      <trkpt lat="50.079998932778835" lon="6.020296923816204">
        <ele>436.58</ele>
        <time>2024-12-29T15:48:10.876Z</time>
      </trkpt>
      <trkpt lat="50.0800749566406" lon="6.020285943523049">
        <ele>437.82</ele>
        <time>2024-12-29T15:48:19.106Z</time>
      </trkpt>
      <trkpt lat="50.08024795912206" lon="6.020208997651935">
        <ele>439.07</ele>
        <time>2024-12-29T15:48:27.360Z</time>
      </trkpt>
      <trkpt lat="50.08030495606363" lon="6.0202299524098635">
        <ele>440.18</ele>
        <time>2024-12-29T15:48:35.622Z</time>
      </trkpt>
      <trkpt lat="50.08041199296713" lon="6.020422987639904">
        <ele>441.3</ele>
        <time>2024-12-29T15:48:43.905Z</time>
      </trkpt>
      <trkpt lat="50.08052598685026" lon="6.020696992054582">
        <ele>442.49</ele>
        <time>2024-12-29T15:48:52.216Z</time>
      </trkpt>
      <trkpt lat="50.08062397129834" lon="6.021046936511993">
        <ele>443.64</ele>
        <time>2024-12-29T15:49:00.560Z</time>
      </trkpt>
      <trkpt lat="50.080664958804846" lon="6.021387996152043">
        <ele>444.72</ele>
        <time>2024-12-29T15:49:08.934Z</time>
      </trkpt>
      <trkpt lat="50.08066797628999" lon="6.021586982533336">
        <ele>445.77</ele>
        <time>2024-12-29T15:49:17.325Z</time>
      </trkpt>
      <trkpt lat="50.080622965469956" lon="6.02181195281446">
        <ele>446.8</ele>
        <time>2024-12-29T15:49:25.736Z</time>
      </trkpt>
      <trkpt lat="50.080560771748424" lon="6.022054525092244">
        <ele>447.88</ele>
        <time>2024-12-29T15:49:34.170Z</time>
      </trkpt>
      <trkpt lat="50.08049899712205" lon="6.0222959239035845">
        <ele>448.98</ele>
        <time>2024-12-29T15:49:42.626Z</time>
      </trkpt>
      <trkpt lat="50.08048198185861" lon="6.022417964413762">
        <ele>450.11</ele>
        <time>2024-12-29T15:49:51.093Z</time>
      </trkpt>
      <trkpt lat="50.08048399351537" lon="6.022526929154992">
        <ele>451.27</ele>
        <time>2024-12-29T15:49:59.569Z</time>
      </trkpt>
      <trkpt lat="50.0805189460516" lon="6.0226319544017315">
        <ele>452.56</ele>
        <time>2024-12-29T15:50:08.055Z</time>
      </trkpt>
      <trkpt lat="50.08056496270001" lon="6.022686939686537">
        <ele>453.94</ele>
        <time>2024-12-29T15:50:16.549Z</time>
      </trkpt>
      <trkpt lat="50.08062992244959" lon="6.02269196882844">
        <ele>455.42</ele>
        <time>2024-12-29T15:50:25.052Z</time>
      </trkpt>
      <trkpt lat="50.08073494769633" lon="6.022618962451816">
        <ele>457.02</ele>
        <time>2024-12-29T15:50:33.570Z</time>
      </trkpt>
      <trkpt lat="50.08079596795142" lon="6.022559953853488">
        <ele>458.65</ele>
        <time>2024-12-29T15:50:42.098Z</time>
      </trkpt>
      <trkpt lat="50.08106376975775" lon="6.022440930828452">
        <ele>460.57</ele>
        <time>2024-12-29T15:50:50.663Z</time>
      </trkpt>
      <trkpt lat="50.08106385357678" lon="6.022440930828452">
        <ele>462.33</ele>
        <time>2024-12-29T15:50:59.228Z</time>
      </trkpt>
      <trkpt lat="50.08106393739581" lon="6.022440930828452">
        <ele>464.16</ele>
        <time>2024-12-29T15:51:07.793Z</time>
      </trkpt>
      <trkpt lat="50.081238616257906" lon="6.0222838539630175">
        <ele>466.21</ele>
        <time>2024-12-29T15:51:16.385Z</time>
      </trkpt>
      <trkpt lat="50.081412959843874" lon="6.022126944735646">
        <ele>468.42</ele>
        <time>2024-12-29T15:51:25.004Z</time>
      </trkpt>
      <trkpt lat="50.08155595511198" lon="6.02194095030427">
        <ele>470.7</ele>
        <time>2024-12-29T15:51:33.648Z</time>
      </trkpt>
      <trkpt lat="50.0816239323467" lon="6.0218229331076145">
        <ele>472.87</ele>
        <time>2024-12-29T15:51:42.305Z</time>
      </trkpt>
      <trkpt lat="50.081725185737014" lon="6.021572984755039">
        <ele>475.17</ele>
        <time>2024-12-29T15:51:50.988Z</time>
      </trkpt>
      <trkpt lat="50.081825936213136" lon="6.021323958411813">
        <ele>477.58</ele>
        <time>2024-12-29T15:51:59.696Z</time>
      </trkpt>
      <trkpt lat="50.081864995881915" lon="6.021261932328343">
        <ele>479.79</ele>
        <time>2024-12-29T15:52:08.411Z</time>
      </trkpt>
      <trkpt lat="50.08192492648959" lon="6.021098988130689">
        <ele>482.03</ele>
        <time>2024-12-29T15:52:17.142Z</time>
      </trkpt>
      <trkpt lat="50.08198091760278" lon="6.020874939858913">
        <ele>484.29</ele>
        <time>2024-12-29T15:52:25.894Z</time>
      </trkpt>
      <trkpt lat="50.08202894590795" lon="6.020511919632554">
        <ele>486.51</ele>
        <time>2024-12-29T15:52:34.678Z</time>
      </trkpt>
      <trkpt lat="50.082040932029486" lon="6.0202929843217134">
        <ele>488.51</ele>
        <time>2024-12-29T15:52:43.481Z</time>
      </trkpt>
      <trkpt lat="50.08204746991396" lon="6.0200011264532804">
        <ele>490.44</ele>
        <time>2024-12-29T15:52:52.309Z</time>
      </trkpt>
      <trkpt lat="50.0820539239794" lon="6.019710944965482">
        <ele>492.28</ele>
        <time>2024-12-29T15:53:01.162Z</time>
      </trkpt>
      <trkpt lat="50.08207496255636" lon="6.019519921392202">
        <ele>494.11</ele>
        <time>2024-12-29T15:53:10.031Z</time>
      </trkpt>
      <trkpt lat="50.08235592395067" lon="6.019666939973831">
        <ele>496.04</ele>
        <time>2024-12-29T15:53:18.940Z</time>
      </trkpt>
      <trkpt lat="50.08259195834398" lon="6.019826950505376">
        <ele>497.71</ele>
        <time>2024-12-29T15:53:27.883Z</time>
      </trkpt>
      <trkpt lat="50.08261299692094" lon="6.020288961008191">
        <ele>498.93</ele>
        <time>2024-12-29T15:53:36.866Z</time>
      </trkpt>
      <trkpt lat="50.08268994279206" lon="6.020661955699325">
        <ele>500.12</ele>
        <time>2024-12-29T15:53:45.883Z</time>
      </trkpt>
      <trkpt lat="50.08281894028187" lon="6.02097493596375">
        <ele>501.27</ele>
        <time>2024-12-29T15:53:54.932Z</time>
      </trkpt>
      <trkpt lat="50.08292698301375" lon="6.02133996784687">
        <ele>502.17</ele>
        <time>2024-12-29T15:54:04.015Z</time>
      </trkpt>
      <trkpt lat="50.08302295580506" lon="6.021502995863557">
        <ele>502.96</ele>
        <time>2024-12-29T15:54:13.117Z</time>
      </trkpt>
      <trkpt lat="50.083133932203054" lon="6.0215699672698975">
        <ele>503.65</ele>
        <time>2024-12-29T15:54:22.235Z</time>
      </trkpt>
      <trkpt lat="50.08325597271323" lon="6.021604919806123">
        <ele>504.22</ele>
        <time>2024-12-29T15:54:31.370Z</time>
      </trkpt>
      <trkpt lat="50.08348949253559" lon="6.021611457690597">
        <ele>504.7</ele>
        <time>2024-12-29T15:54:40.536Z</time>
      </trkpt>
      <trkpt lat="50.08372292853892" lon="6.02161799557507">
        <ele>505.15</ele>
        <time>2024-12-29T15:54:49.733Z</time>
      </trkpt>
      <trkpt lat="50.083776069805026" lon="6.02163216099143">
        <ele>505.34</ele>
        <time>2024-12-29T15:54:58.937Z</time>
      </trkpt>
      <trkpt lat="50.08384597487748" lon="6.0216509364545345">
        <ele>505.42</ele>
        <time>2024-12-29T15:55:08.151Z</time>
      </trkpt>
      <trkpt lat="50.08405392989516" lon="6.021869955584407">
        <ele>505.34</ele>
        <time>2024-12-29T15:55:17.398Z</time>
      </trkpt>
      <trkpt lat="50.08415794931352" lon="6.02191898971796">
        <ele>505.18</ele>
        <time>2024-12-29T15:55:26.660Z</time>
      </trkpt>
      <trkpt lat="50.08428191766143" lon="6.021882947534323">
        <ele>504.95</ele>
        <time>2024-12-29T15:55:35.939Z</time>
      </trkpt>
      <trkpt lat="50.08447595871985" lon="6.021761996671557">
        <ele>504.62</ele>
        <time>2024-12-29T15:55:45.245Z</time>
      </trkpt>
      <trkpt lat="50.084592970088124" lon="6.021751938387752">
        <ele>504.1</ele>
        <time>2024-12-29T15:55:54.567Z</time>
      </trkpt>
      <trkpt lat="50.08486345410347" lon="6.021817987784743">
        <ele>503.31</ele>
        <time>2024-12-29T15:56:03.926Z</time>
      </trkpt>
      <trkpt lat="50.085133938118815" lon="6.021883953362703">
        <ele>502.43</ele>
        <time>2024-12-29T15:56:13.321Z</time>
      </trkpt>
      <trkpt lat="50.085367960855365" lon="6.022012950852513">
        <ele>501.41</ele>
        <time>2024-12-29T15:56:22.749Z</time>
      </trkpt>
      <trkpt lat="50.08558999747038" lon="6.022205986082554">
        <ele>500.27</ele>
        <time>2024-12-29T15:56:32.211Z</time>
      </trkpt>
      <trkpt lat="50.0857409555465" lon="6.02230497635901">
        <ele>499.19</ele>
        <time>2024-12-29T15:56:41.695Z</time>
      </trkpt>
      <trkpt lat="50.08587992750108" lon="6.022372953593731">
        <ele>498.09</ele>
        <time>2024-12-29T15:56:51.199Z</time>
      </trkpt>
      <trkpt lat="50.085970954969525" lon="6.022189976647496">
        <ele>497.27</ele>
        <time>2024-12-29T15:57:00.722Z</time>
      </trkpt>
      <trkpt lat="50.08615795522928" lon="6.0218859650194645">
        <ele>496.53</ele>
        <time>2024-12-29T15:57:10.282Z</time>
      </trkpt>
      <trkpt lat="50.08627119474113" lon="6.021529482677579">
        <ele>495.81</ele>
        <time>2024-12-29T15:57:19.876Z</time>
      </trkpt>
      <trkpt lat="50.08638443425298" lon="6.021173000335693">
        <ele>495.08</ele>
        <time>2024-12-29T15:57:29.504Z</time>
      </trkpt>
      <trkpt lat="50.08649691939354" lon="6.0208189487457275">
        <ele>494.35</ele>
        <time>2024-12-29T15:57:39.166Z</time>
      </trkpt>
      <trkpt lat="50.08665123023093" lon="6.020452743396163">
        <ele>493.51</ele>
        <time>2024-12-29T15:57:48.865Z</time>
      </trkpt>
      <trkpt lat="50.08680495433509" lon="6.020087962970138">
        <ele>492.51</ele>
        <time>2024-12-29T15:57:58.602Z</time>
      </trkpt>
      <trkpt lat="50.08681995794177" lon="6.0200579557567835">
        <ele>491.69</ele>
        <time>2024-12-29T15:58:08.342Z</time>
      </trkpt>
      <trkpt lat="50.08694166317582" lon="6.019827034324408">
        <ele>490.71</ele>
        <time>2024-12-29T15:58:18.108Z</time>
      </trkpt>
      <trkpt lat="50.08706294931471" lon="6.019596951082349">
        <ele>489.78</ele>
        <time>2024-12-29T15:58:27.899Z</time>
      </trkpt>
      <trkpt lat="50.08729093708098" lon="6.019380949437618">
        <ele>488.85</ele>
        <time>2024-12-29T15:58:37.726Z</time>
      </trkpt>
      <trkpt lat="50.08748749271035" lon="6.019265949726105">
        <ele>488.22</ele>
        <time>2024-12-29T15:58:47.581Z</time>
      </trkpt>
      <trkpt lat="50.08768396452069" lon="6.019150950014591">
        <ele>487.7</ele>
        <time>2024-12-29T15:58:57.464Z</time>
      </trkpt>
      <trkpt lat="50.087888315320015" lon="6.019074926152825">
        <ele>487.3</ele>
        <time>2024-12-29T15:59:07.375Z</time>
      </trkpt>
      <trkpt lat="50.08809266611934" lon="6.0189989022910595">
        <ele>487.08</ele>
        <time>2024-12-29T15:59:17.314Z</time>
      </trkpt>
      <trkpt lat="50.08829693309963" lon="6.018922962248325">
        <ele>486.95</ele>
        <time>2024-12-29T15:59:27.281Z</time>
      </trkpt>
      <trkpt lat="50.08843095973134" lon="6.018946934491396">
        <ele>486.87</ele>
        <time>2024-12-29T15:59:37.266Z</time>
      </trkpt>
      <trkpt lat="50.088571943342686" lon="6.018934948369861">
        <ele>486.82</ele>
        <time>2024-12-29T15:59:47.270Z</time>
      </trkpt>
      <trkpt lat="50.0887699238956" lon="6.018864959478378">
        <ele>486.77</ele>
        <time>2024-12-29T15:59:57.301Z</time>
      </trkpt>
      <trkpt lat="50.08885893970728" lon="6.01880494505167">
        <ele>486.81</ele>
        <time>2024-12-29T16:00:07.345Z</time>
      </trkpt>
      <trkpt lat="50.08909497410059" lon="6.018954981118441">
        <ele>486.86</ele>
        <time>2024-12-29T16:00:17.423Z</time>
      </trkpt>
      <trkpt lat="50.08927199989557" lon="6.019101999700069">
        <ele>487.0</ele>
        <time>2024-12-29T16:00:27.528Z</time>
      </trkpt>
      <trkpt lat="50.08944399654865" lon="6.019292939454317">
        <ele>487.16</ele>
        <time>2024-12-29T16:00:37.661Z</time>
      </trkpt>
      <trkpt lat="50.08961817249656" lon="6.0195172391831875">
        <ele>487.38</ele>
        <time>2024-12-29T16:00:47.824Z</time>
      </trkpt>
      <trkpt lat="50.0897919293493" lon="6.019740952178836">
        <ele>487.7</ele>
        <time>2024-12-29T16:00:58.017Z</time>
      </trkpt>
      <trkpt lat="50.09000876918435" lon="6.020050831139088">
        <ele>488.08</ele>
        <time>2024-12-29T16:01:08.250Z</time>
      </trkpt>
      <trkpt lat="50.090224938467145" lon="6.020359955728054">
        <ele>488.34</ele>
        <time>2024-12-29T16:01:18.522Z</time>
      </trkpt>
      <trkpt lat="50.09041973389685" lon="6.0206864308565855">
        <ele>488.34</ele>
        <time>2024-12-29T16:01:28.832Z</time>
      </trkpt>
      <trkpt lat="50.090613942593336" lon="6.021011983975768">
        <ele>488.03</ele>
        <time>2024-12-29T16:01:39.180Z</time>
      </trkpt>
      <trkpt lat="50.09079298004508" lon="6.02138196118176">
        <ele>487.74</ele>
        <time>2024-12-29T16:01:49.568Z</time>
      </trkpt>
      <trkpt lat="50.09097319096327" lon="6.021630233153701">
        <ele>487.49</ele>
        <time>2024-12-29T16:01:59.988Z</time>
      </trkpt>
      <trkpt lat="50.0911529827863" lon="6.02187791839242">
        <ele>487.18</ele>
        <time>2024-12-29T16:02:10.440Z</time>
      </trkpt>
      <trkpt lat="50.091318944469094" lon="6.022060979157686">
        <ele>486.83</ele>
        <time>2024-12-29T16:02:20.919Z</time>
      </trkpt>
      <trkpt lat="50.09143293835223" lon="6.0221389308571815">
        <ele>486.45</ele>
        <time>2024-12-29T16:02:31.415Z</time>
      </trkpt>
      <trkpt lat="50.09155196137726" lon="6.022148989140987">
        <ele>486.0</ele>
        <time>2024-12-29T16:02:41.927Z</time>
      </trkpt>
      <trkpt lat="50.09177894331515" lon="6.0220959316939116">
        <ele>485.54</ele>
        <time>2024-12-29T16:02:52.470Z</time>
      </trkpt>
      <trkpt lat="50.091917999088764" lon="6.02208998054266">
        <ele>484.89</ele>
        <time>2024-12-29T16:03:03.031Z</time>
      </trkpt>
      <trkpt lat="50.092112962156534" lon="6.022159969434142">
        <ele>484.07</ele>
        <time>2024-12-29T16:03:13.619Z</time>
      </trkpt>
      <trkpt lat="50.09224698878825" lon="6.022197939455509">
        <ele>483.23</ele>
        <time>2024-12-29T16:03:24.225Z</time>
      </trkpt>
      <trkpt lat="50.092369951307774" lon="6.0222649946808815">
        <ele>482.26</ele>
        <time>2024-12-29T16:03:34.848Z</time>
      </trkpt>
      <trkpt lat="50.09242292493582" lon="6.022260971367359">
        <ele>481.22</ele>
        <time>2024-12-29T16:03:45.478Z</time>
      </trkpt>
      <trkpt lat="50.092477994039655" lon="6.022205986082554">
        <ele>480.07</ele>
        <time>2024-12-29T16:03:56.117Z</time>
      </trkpt>
      <trkpt lat="50.092522921040654" lon="6.0220929980278015">
        <ele>478.81</ele>
        <time>2024-12-29T16:04:06.768Z</time>
      </trkpt>
      <trkpt lat="50.09255594573915" lon="6.021902980282903">
        <ele>477.39</ele>
        <time>2024-12-29T16:04:17.436Z</time>
      </trkpt>
      <trkpt lat="50.09255795739591" lon="6.021645991131663">
        <ele>475.77</ele>
        <time>2024-12-29T16:04:28.126Z</time>
      </trkpt>
      <trkpt lat="50.092544462531805" lon="6.0213532112538815">
        <ele>474.02</ele>
        <time>2024-12-29T16:04:38.841Z</time>
      </trkpt>
      <trkpt lat="50.09254094213247" lon="6.021277941763401">
        <ele>472.3</ele>
        <time>2024-12-29T16:04:49.562Z</time>
      </trkpt>
      <trkpt lat="50.0925499945879" lon="6.021094964817166">
        <ele>470.46</ele>
        <time>2024-12-29T16:05:00.299Z</time>
      </trkpt>
      <trkpt lat="50.09262098930776" lon="6.021125977858901">
        <ele>468.54</ele>
        <time>2024-12-29T16:05:11.046Z</time>
      </trkpt>
      <trkpt lat="50.09267798624933" lon="6.021165959537029">
        <ele>466.56</ele>
        <time>2024-12-29T16:05:21.801Z</time>
      </trkpt>
      <trkpt lat="50.092843947932124" lon="6.021191943436861">
        <ele>464.46</ele>
        <time>2024-12-29T16:05:32.578Z</time>
      </trkpt>
      <trkpt lat="50.09293899871409" lon="6.021287916228175">
        <ele>462.35</ele>
        <time>2024-12-29T16:05:43.371Z</time>
      </trkpt>
      <trkpt lat="50.09309993125498" lon="6.0213499423116446">
        <ele>459.92</ele>
        <time>2024-12-29T16:05:54.186Z</time>
      </trkpt>
      <trkpt lat="50.09321593679488" lon="6.021422948688269">
        <ele>457.54</ele>
        <time>2024-12-29T16:06:05.017Z</time>
      </trkpt>
      <trkpt lat="50.0934099778533" lon="6.0216559655964375">
        <ele>455.16</ele>
        <time>2024-12-29T16:06:15.881Z</time>
      </trkpt>
      <trkpt lat="50.09341701865196" lon="6.021348098292947">
        <ele>452.64</ele>
        <time>2024-12-29T16:06:26.772Z</time>
      </trkpt>
      <trkpt lat="50.093423975631595" lon="6.021041991189122">
        <ele>449.99</ele>
        <time>2024-12-29T16:06:37.689Z</time>
      </trkpt>
      <trkpt lat="50.0935479439795" lon="6.021195966750383">
        <ele>447.73</ele>
        <time>2024-12-29T16:06:48.627Z</time>
      </trkpt>
      <trkpt lat="50.09358691982925" lon="6.021188925951719">
        <ele>445.46</ele>
        <time>2024-12-29T16:06:59.570Z</time>
      </trkpt>
      <trkpt lat="50.09380392730236" lon="6.0209529753774405">
        <ele>442.62</ele>
        <time>2024-12-29T16:07:10.549Z</time>
      </trkpt>
      <trkpt lat="50.09379797615111" lon="6.020704954862595">
        <ele>440.47</ele>
        <time>2024-12-29T16:07:21.549Z</time>
      </trkpt>
      <trkpt lat="50.09378339163959" lon="6.020241184160113">
        <ele>438.44</ele>
        <time>2024-12-29T16:07:32.589Z</time>
      </trkpt>
      <trkpt lat="50.093768974766135" lon="6.0197799280285835">
        <ele>436.88</ele>
        <time>2024-12-29T16:07:43.669Z</time>
      </trkpt>
      <trkpt lat="50.09370896033943" lon="6.019428977742791">
        <ele>435.46</ele>
        <time>2024-12-29T16:07:54.780Z</time>
      </trkpt>
      <trkpt lat="50.09369395673275" lon="6.019339961931109">
        <ele>433.95</ele>
        <time>2024-12-29T16:08:05.899Z</time>
      </trkpt>
      <trkpt lat="50.09360594674945" lon="6.018964955583215">
        <ele>432.56</ele>
        <time>2024-12-29T16:08:17.052Z</time>
      </trkpt>
      <trkpt lat="50.093498742207885" lon="6.0186537355184555">
        <ele>431.12</ele>
        <time>2024-12-29T16:08:28.235Z</time>
      </trkpt>
      <trkpt lat="50.09339195676148" lon="6.018343940377235">
        <ele>429.59</ele>
        <time>2024-12-29T16:08:39.448Z</time>
      </trkpt>
      <trkpt lat="50.09329095482826" lon="6.018054932355881">
        <ele>428.14</ele>
        <time>2024-12-29T16:08:50.690Z</time>
      </trkpt>
      <trkpt lat="50.093155754730105" lon="6.0177970211952925">
        <ele>426.85</ele>
        <time>2024-12-29T16:09:01.960Z</time>
      </trkpt>
      <trkpt lat="50.09302097372711" lon="6.017539948225021">
        <ele>425.73</ele>
        <time>2024-12-29T16:09:13.259Z</time>
      </trkpt>
      <trkpt lat="50.09293698705733" lon="6.017332999035716">
        <ele>424.75</ele>
        <time>2024-12-29T16:09:24.579Z</time>
      </trkpt>
      <trkpt lat="50.09303094819188" lon="6.017306931316853">
        <ele>423.89</ele>
        <time>2024-12-29T16:09:35.911Z</time>
      </trkpt>
      <trkpt lat="50.093124993145466" lon="6.017332999035716">
        <ele>423.08</ele>
        <time>2024-12-29T16:09:47.256Z</time>
      </trkpt>
      <trkpt lat="50.093136979267" lon="6.017363928258419">
        <ele>422.31</ele>
        <time>2024-12-29T16:09:58.604Z</time>
      </trkpt>
      <trkpt lat="50.093210991472006" lon="6.017414974048734">
        <ele>421.57</ele>
        <time>2024-12-29T16:10:09.963Z</time>
      </trkpt>
      <trkpt lat="50.09324795566499" lon="6.0174129623919725">
        <ele>420.81</ele>
        <time>2024-12-29T16:10:21.327Z</time>
      </trkpt>
      <trkpt lat="50.093471920117736" lon="6.017567943781614">
        <ele>420.06</ele>
        <time>2024-12-29T16:10:32.724Z</time>
      </trkpt>
      <trkpt lat="50.09356093592942" lon="6.017539948225021">
        <ele>419.25</ele>
        <time>2024-12-29T16:10:44.133Z</time>
      </trkpt>
      <trkpt lat="50.093723963946104" lon="6.017523938789964">
        <ele>418.36</ele>
        <time>2024-12-29T16:10:55.564Z</time>
      </trkpt>
      <trkpt lat="50.09374684654176" lon="6.017536846920848">
        <ele>417.43</ele>
        <time>2024-12-29T16:11:06.998Z</time>
      </trkpt>
      <trkpt lat="50.093746930360794" lon="6.01753693073988">
        <ele>415.3</ele>
        <time>2024-12-29T16:11:18.432Z</time>
      </trkpt>
      <trkpt lat="50.09388598613441" lon="6.017446992918849">
        <ele>414.02</ele>
        <time>2024-12-29T16:11:29.886Z</time>
      </trkpt>
      <trkpt lat="50.09392596781254" lon="6.017370969057083">
        <ele>412.61</ele>
        <time>2024-12-29T16:11:41.348Z</time>
      </trkpt>
      <trkpt lat="50.09396896697581" lon="6.0172029957175255">
        <ele>411.03</ele>
        <time>2024-12-29T16:11:52.826Z</time>
      </trkpt>
      <trkpt lat="50.09410198777914" lon="6.017028987407684">
        <ele>409.35</ele>
        <time>2024-12-29T16:12:04.327Z</time>
      </trkpt>
      <trkpt lat="50.094196954742074" lon="6.016867971047759">
        <ele>407.57</ele>
        <time>2024-12-29T16:12:15.847Z</time>
      </trkpt>
      <trkpt lat="50.09424699470401" lon="6.016824971884489">
        <ele>405.8</ele>
        <time>2024-12-29T16:12:27.375Z</time>
      </trkpt>
      <trkpt lat="50.09449099190533" lon="6.016772920265794">
        <ele>403.87</ele>
        <time>2024-12-29T16:12:38.935Z</time>
      </trkpt>
      <trkpt lat="50.09454698301852" lon="6.016789935529232">
        <ele>402.09</ele>
        <time>2024-12-29T16:12:50.503Z</time>
      </trkpt>
      <trkpt lat="50.09472602047026" lon="6.0169020015746355">
        <ele>400.27</ele>
        <time>2024-12-29T16:13:02.097Z</time>
      </trkpt>
      <trkpt lat="50.094904974102974" lon="6.017013983801007">
        <ele>398.35</ele>
        <time>2024-12-29T16:13:13.717Z</time>
      </trkpt>
      <trkpt lat="50.09517696686089" lon="6.017241971567273">
        <ele>395.99</ele>
        <time>2024-12-29T16:13:25.378Z</time>
      </trkpt>
      <trkpt lat="50.09524393826723" lon="6.017512958496809">
        <ele>394.31</ele>
        <time>2024-12-29T16:13:37.064Z</time>
      </trkpt>
      <trkpt lat="50.09534494020045" lon="6.017831973731518">
        <ele>392.62</ele>
        <time>2024-12-29T16:13:48.780Z</time>
      </trkpt>
      <trkpt lat="50.09544996544719" lon="6.018083933740854">
        <ele>390.86</ele>
        <time>2024-12-29T16:14:00.522Z</time>
      </trkpt>
      <trkpt lat="50.095596984028816" lon="6.018341928720474">
        <ele>389.28</ele>
        <time>2024-12-29T16:14:12.294Z</time>
      </trkpt>
      <trkpt lat="50.09577493183315" lon="6.018591960892081">
        <ele>387.86</ele>
        <time>2024-12-29T16:14:24.098Z</time>
      </trkpt>
      <trkpt lat="50.09593963623047" lon="6.01879614405334">
        <ele>386.55</ele>
        <time>2024-12-29T16:14:35.930Z</time>
      </trkpt>
      <trkpt lat="50.09610392153263" lon="6.018999991938472">
        <ele>385.31</ele>
        <time>2024-12-29T16:14:47.790Z</time>
      </trkpt>
      <trkpt lat="50.09626996703446" lon="6.019231919199228">
        <ele>384.16</ele>
        <time>2024-12-29T16:14:59.680Z</time>
      </trkpt>
      <trkpt lat="50.09631296619773" lon="6.019301991909742">
        <ele>383.44</ele>
        <time>2024-12-29T16:15:11.578Z</time>
      </trkpt>
      <trkpt lat="50.09636610746384" lon="6.018888344988227">
        <ele>382.96</ele>
        <time>2024-12-29T16:15:23.512Z</time>
      </trkpt>
      <trkpt lat="50.096384044736624" lon="6.018748618662357">
        <ele>382.72</ele>
        <time>2024-12-29T16:15:35.458Z</time>
      </trkpt>
      <trkpt lat="50.096419248729944" lon="6.018474698066711">
        <ele>382.71</ele>
        <time>2024-12-29T16:15:47.428Z</time>
      </trkpt>
      <trkpt lat="50.09647238999605" lon="6.018061134964228">
        <ele>382.98</ele>
        <time>2024-12-29T16:15:59.435Z</time>
      </trkpt>
      <trkpt lat="50.09652494452894" lon="6.017651930451393">
        <ele>383.61</ele>
        <time>2024-12-29T16:16:11.477Z</time>
      </trkpt>
      <trkpt lat="50.09657892398536" lon="6.01727994158864">
        <ele>384.51</ele>
        <time>2024-12-29T16:16:23.552Z</time>
      </trkpt>
      <trkpt lat="50.09663097560406" lon="6.017292933538556">
        <ele>385.69</ele>
        <time>2024-12-29T16:16:35.634Z</time>
      </trkpt>
      <trkpt lat="50.09667908772826" lon="6.017008200287819">
        <ele>387.17</ele>
        <time>2024-12-29T16:16:47.742Z</time>
      </trkpt>
      <trkpt lat="50.09672694839537" lon="6.016724975779653">
        <ele>388.93</ele>
        <time>2024-12-29T16:16:59.875Z</time>
      </trkpt>
      <trkpt lat="50.096792159602046" lon="6.016344605013728">
        <ele>390.98</ele>
        <time>2024-12-29T16:17:12.041Z</time>
      </trkpt>
      <trkpt lat="50.09685728698969" lon="6.015964318066835">
        <ele>393.26</ele>
        <time>2024-12-29T16:17:24.241Z</time>
      </trkpt>
      <trkpt lat="50.09692199528217" lon="6.015586964786053">
        <ele>395.9</ele>
        <time>2024-12-29T16:17:36.475Z</time>
      </trkpt>
      <trkpt lat="50.09699399583042" lon="6.015375992283225">
        <ele>398.71</ele>
        <time>2024-12-29T16:17:48.729Z</time>
      </trkpt>
      <trkpt lat="50.09708393365145" lon="6.015220927074552">
        <ele>401.8</ele>
        <time>2024-12-29T16:18:01.001Z</time>
      </trkpt>
      <trkpt lat="50.09717194363475" lon="6.015098970383406">
        <ele>404.94</ele>
        <time>2024-12-29T16:18:13.289Z</time>
      </trkpt>
      <trkpt lat="50.09723698720336" lon="6.0147889237850904">
        <ele>408.13</ele>
        <time>2024-12-29T16:18:25.605Z</time>
      </trkpt>
      <trkpt lat="50.09732499718666" lon="6.0145889315754175">
        <ele>411.39</ele>
        <time>2024-12-29T16:18:37.942Z</time>
      </trkpt>
      <trkpt lat="50.09743195027113" lon="6.014394974336028">
        <ele>414.84</ele>
        <time>2024-12-29T16:18:50.301Z</time>
      </trkpt>
      <trkpt lat="50.09755499660969" lon="6.013989960774779">
        <ele>418.53</ele>
        <time>2024-12-29T16:19:02.698Z</time>
      </trkpt>
      <trkpt lat="50.09769623167813" lon="6.013683350756764">
        <ele>422.23</ele>
        <time>2024-12-29T16:19:15.128Z</time>
      </trkpt>
      <trkpt lat="50.09783696383238" lon="6.013377998024225">
        <ele>425.95</ele>
        <time>2024-12-29T16:19:27.590Z</time>
      </trkpt>
      <trkpt lat="50.097892954945564" lon="6.013384955003858">
        <ele>429.41</ele>
        <time>2024-12-29T16:19:40.059Z</time>
      </trkpt>
      <trkpt lat="50.09790393523872" lon="6.013493919745088">
        <ele>432.68</ele>
        <time>2024-12-29T16:19:52.538Z</time>
      </trkpt>
      <trkpt lat="50.09792597964406" lon="6.013530967757106">
        <ele>435.88</ele>
        <time>2024-12-29T16:20:05.021Z</time>
      </trkpt>
      <trkpt lat="50.098119685426354" lon="6.013238523155451">
        <ele>439.27</ele>
        <time>2024-12-29T16:20:17.540Z</time>
      </trkpt>
      <trkpt lat="50.09831297211349" lon="6.012946916744113">
        <ele>442.49</ele>
        <time>2024-12-29T16:20:30.095Z</time>
      </trkpt>
      <trkpt lat="50.098463762551546" lon="6.012577190995216">
        <ele>445.43</ele>
        <time>2024-12-29T16:20:42.688Z</time>
      </trkpt>
      <trkpt lat="50.09861396625638" lon="6.012208973988891">
        <ele>448.2</ele>
        <time>2024-12-29T16:20:55.318Z</time>
      </trkpt>
      <trkpt lat="50.09872452355921" lon="6.011822232976556">
        <ele>450.64</ele>
        <time>2024-12-29T16:21:07.984Z</time>
      </trkpt>
      <trkpt lat="50.09883516468108" lon="6.011435491964221">
        <ele>453.04</ele>
        <time>2024-12-29T16:21:20.687Z</time>
      </trkpt>
      <trkpt lat="50.09894572198391" lon="6.011048750951886">
        <ele>455.25</ele>
        <time>2024-12-29T16:21:33.426Z</time>
      </trkpt>
      <trkpt lat="50.099056363105774" lon="6.010662009939551">
        <ele>457.26</ele>
        <time>2024-12-29T16:21:46.201Z</time>
      </trkpt>
      <trkpt lat="50.09916692040861" lon="6.0102752689272165">
        <ele>459.0</ele>
        <time>2024-12-29T16:21:59.013Z</time>
      </trkpt>
      <trkpt lat="50.09927596896887" lon="6.009893976151943">
        <ele>460.63</ele>
        <time>2024-12-29T16:22:11.861Z</time>
      </trkpt>
      <trkpt lat="50.09942499920726" lon="6.009542942047119">
        <ele>462.18</ele>
        <time>2024-12-29T16:22:24.745Z</time>
      </trkpt>
      <trkpt lat="50.09951996617019" lon="6.009467924013734">
        <ele>463.34</ele>
        <time>2024-12-29T16:22:37.643Z</time>
      </trkpt>
      <trkpt lat="50.099609987810254" lon="6.0095189698040485">
        <ele>464.29</ele>
        <time>2024-12-29T16:22:50.554Z</time>
      </trkpt>
      <trkpt lat="50.09985398501158" lon="6.0098029486835">
        <ele>465.11</ele>
        <time>2024-12-29T16:23:03.505Z</time>
      </trkpt>
      <trkpt lat="50.09994291700423" lon="6.009816946461797">
        <ele>465.51</ele>
        <time>2024-12-29T16:23:16.468Z</time>
      </trkpt>
      <trkpt lat="50.100172916427255" lon="6.00980194285512">
        <ele>465.7</ele>
        <time>2024-12-29T16:23:29.462Z</time>
      </trkpt>
      <trkpt lat="50.10017769411206" lon="6.009803367778659">
        <ele>465.6</ele>
        <time>2024-12-29T16:23:42.457Z</time>
      </trkpt>
      <trkpt lat="50.100390929728746" lon="6.009866986423731">
        <ele>465.27</ele>
        <time>2024-12-29T16:23:55.481Z</time>
      </trkpt>
      <trkpt lat="50.100558986887336" lon="6.009965976700187">
        <ele>464.8</ele>
        <time>2024-12-29T16:24:08.529Z</time>
      </trkpt>
      <trkpt lat="50.10075797326863" lon="6.010027918964624">
        <ele>464.16</ele>
        <time>2024-12-29T16:24:21.604Z</time>
      </trkpt>
      <trkpt lat="50.10089593939483" lon="6.009988943114877">
        <ele>463.35</ele>
        <time>2024-12-29T16:24:34.697Z</time>
      </trkpt>
      <trkpt lat="50.10103893466294" lon="6.009820969775319">
        <ele>462.29</ele>
        <time>2024-12-29T16:24:47.814Z</time>
      </trkpt>
      <trkpt lat="50.10114999487996" lon="6.009613936766982">
        <ele>461.14</ele>
        <time>2024-12-29T16:25:00.955Z</time>
      </trkpt>
      <trkpt lat="50.10126859880984" lon="6.009417129680514">
        <ele>459.95</ele>
        <time>2024-12-29T16:25:14.119Z</time>
      </trkpt>
      <trkpt lat="50.10138695128262" lon="6.0092209931463">
        <ele>458.64</ele>
        <time>2024-12-29T16:25:27.306Z</time>
      </trkpt>
      <trkpt lat="50.101565988734365" lon="6.008895942941308">
        <ele>457.12</ele>
        <time>2024-12-29T16:25:40.530Z</time>
      </trkpt>
      <trkpt lat="50.10172197595239" lon="6.008488917723298">
        <ele>455.64</ele>
        <time>2024-12-29T16:25:53.794Z</time>
      </trkpt>
      <trkpt lat="50.10179297067225" lon="6.008353969082236">
        <ele>454.7</ele>
        <time>2024-12-29T16:26:07.073Z</time>
      </trkpt>
      <trkpt lat="50.10205599479377" lon="6.0083939507603645">
        <ele>454.25</ele>
        <time>2024-12-29T16:26:20.387Z</time>
      </trkpt>
      <trkpt lat="50.10224651545286" lon="6.0084369499236345">
        <ele>453.73</ele>
        <time>2024-12-29T16:26:33.727Z</time>
      </trkpt>
      <trkpt lat="50.10243695229292" lon="6.0084799490869045">
        <ele>453.25</ele>
        <time>2024-12-29T16:26:47.093Z</time>
      </trkpt>
      <trkpt lat="50.10250492952764" lon="6.008549937978387">
        <ele>452.92</ele>
        <time>2024-12-29T16:27:00.470Z</time>
      </trkpt>
      <trkpt lat="50.102557986974716" lon="6.008659992367029">
        <ele>452.79</ele>
        <time>2024-12-29T16:27:13.859Z</time>
      </trkpt>
      <trkpt lat="50.102694276720285" lon="6.009054780006409">
        <ele>452.88</ele>
        <time>2024-12-29T16:27:27.286Z</time>
      </trkpt>
      <trkpt lat="50.10282997973263" lon="6.009447975084186">
        <ele>452.89</ele>
        <time>2024-12-29T16:27:40.751Z</time>
      </trkpt>
      <trkpt lat="50.102857975289226" lon="6.009488962590694">
        <ele>452.98</ele>
        <time>2024-12-29T16:27:54.221Z</time>
      </trkpt>
      <trkpt lat="50.10290298610926" lon="6.009557945653796">
        <ele>453.16</ele>
        <time>2024-12-29T16:28:07.700Z</time>
      </trkpt>
      <trkpt lat="50.102943973615766" lon="6.009829938411713">
        <ele>453.56</ele>
        <time>2024-12-29T16:28:21.203Z</time>
      </trkpt>
      <trkpt lat="50.10297456756234" lon="6.010143840685487">
        <ele>453.92</ele>
        <time>2024-12-29T16:28:34.733Z</time>
      </trkpt>
      <trkpt lat="50.103004993870854" lon="6.010455982759595">
        <ele>454.41</ele>
        <time>2024-12-29T16:28:48.290Z</time>
      </trkpt>
      <trkpt lat="50.10301597416401" lon="6.0105579905211926">
        <ele>454.89</ele>
        <time>2024-12-29T16:29:01.856Z</time>
      </trkpt>
      <trkpt lat="50.10305855423212" lon="6.01084372960031">
        <ele>455.39</ele>
        <time>2024-12-29T16:29:15.447Z</time>
      </trkpt>
      <trkpt lat="50.10310096666217" lon="6.011127959936857">
        <ele>455.82</ele>
        <time>2024-12-29T16:29:29.063Z</time>
      </trkpt>
      <trkpt lat="50.10314295999706" lon="6.011373968794942">
        <ele>456.21</ele>
        <time>2024-12-29T16:29:42.701Z</time>
      </trkpt>
      <trkpt lat="50.10318394750357" lon="6.011615954339504">
        <ele>456.55</ele>
        <time>2024-12-29T16:29:56.361Z</time>
      </trkpt>
      <trkpt lat="50.103296181187034" lon="6.011859951540828">
        <ele>456.73</ele>
        <time>2024-12-29T16:30:10.046Z</time>
      </trkpt>
      <trkpt lat="50.10340799577534" lon="6.012102942913771">
        <ele>456.93</ele>
        <time>2024-12-29T16:30:23.757Z</time>
      </trkpt>
      <trkpt lat="50.10353095829487" lon="6.012215930968523">
        <ele>456.8</ele>
        <time>2024-12-29T16:30:37.487Z</time>
      </trkpt>
      <trkpt lat="50.10368099436164" lon="6.012320956215262">
        <ele>456.5</ele>
        <time>2024-12-29T16:30:51.239Z</time>
      </trkpt>
      <trkpt lat="50.10384863242507" lon="6.0124855767935514">
        <ele>456.11</ele>
        <time>2024-12-29T16:31:05.018Z</time>
      </trkpt>
      <trkpt lat="50.104015935212374" lon="6.012649945914745">
        <ele>455.58</ele>
        <time>2024-12-29T16:31:18.823Z</time>
      </trkpt>
      <trkpt lat="50.10424291715026" lon="6.012821942567825">
        <ele>454.99</ele>
        <time>2024-12-29T16:31:32.662Z</time>
      </trkpt>
      <trkpt lat="50.10450795292854" lon="6.013042973354459">
        <ele>454.33</ele>
        <time>2024-12-29T16:31:46.541Z</time>
      </trkpt>
      <trkpt lat="50.10451993905008" lon="6.013052947819233">
        <ele>453.33</ele>
        <time>2024-12-29T16:32:00.422Z</time>
      </trkpt>
      <trkpt lat="50.104704927653074" lon="6.013171970844269">
        <ele>452.18</ele>
        <time>2024-12-29T16:32:14.329Z</time>
      </trkpt>
      <trkpt lat="50.10484993457794" lon="6.013231985270977">
        <ele>450.75</ele>
        <time>2024-12-29T16:32:28.256Z</time>
      </trkpt>
      <trkpt lat="50.10500994510949" lon="6.0131679475307465">
        <ele>448.92</ele>
        <time>2024-12-29T16:32:42.205Z</time>
      </trkpt>
      <trkpt lat="50.105114970356226" lon="6.0130339208990335">
        <ele>446.94</ele>
        <time>2024-12-29T16:32:56.173Z</time>
      </trkpt>
      <trkpt lat="50.105328960344195" lon="6.012871982529759">
        <ele>444.59</ele>
        <time>2024-12-29T16:33:10.172Z</time>
      </trkpt>
      <trkpt lat="50.1053979434073" lon="6.012771986424923">
        <ele>442.52</ele>
        <time>2024-12-29T16:33:24.184Z</time>
      </trkpt>
      <trkpt lat="50.105480924248695" lon="6.012705937027931">
        <ele>440.47</ele>
        <time>2024-12-29T16:33:38.208Z</time>
      </trkpt>
      <trkpt lat="50.10551294311881" lon="6.0125939548015594">
        <ele>438.44</ele>
        <time>2024-12-29T16:33:52.243Z</time>
      </trkpt>
      <trkpt lat="50.105543956160545" lon="6.012510973960161">
        <ele>436.39</ele>
        <time>2024-12-29T16:34:06.286Z</time>
      </trkpt>
      <trkpt lat="50.105609921738505" lon="6.012461939826608">
        <ele>434.37</ele>
        <time>2024-12-29T16:34:20.339Z</time>
      </trkpt>
      <trkpt lat="50.105775967240334" lon="6.0124599281698465">
        <ele>432.39</ele>
        <time>2024-12-29T16:34:34.414Z</time>
      </trkpt>
      <trkpt lat="50.105844950303435" lon="6.012438973411918">
        <ele>430.42</ele>
        <time>2024-12-29T16:34:48.498Z</time>
      </trkpt>
      <trkpt lat="50.10595299303532" lon="6.012289943173528">
        <ele>428.4</ele>
        <time>2024-12-29T16:35:02.602Z</time>
      </trkpt>
      <trkpt lat="50.10604896582663" lon="6.012018956243992">
        <ele>426.37</ele>
        <time>2024-12-29T16:35:16.732Z</time>
      </trkpt>
      <trkpt lat="50.10617419146001" lon="6.0117540042847395">
        <ele>424.34</ele>
        <time>2024-12-29T16:35:30.891Z</time>
      </trkpt>
      <trkpt lat="50.10629899799824" lon="6.011489974334836">
        <ele>422.37</ele>
        <time>2024-12-29T16:35:45.078Z</time>
      </trkpt>
      <trkpt lat="50.10638591833413" lon="6.01132694631815">
        <ele>420.56</ele>
        <time>2024-12-29T16:35:59.283Z</time>
      </trkpt>
      <trkpt lat="50.106465965509415" lon="6.01119794882834">
        <ele>418.91</ele>
        <time>2024-12-29T16:36:13.503Z</time>
      </trkpt>
      <trkpt lat="50.10650192387402" lon="6.011161990463734">
        <ele>417.4</ele>
        <time>2024-12-29T16:36:27.729Z</time>
      </trkpt>
      <trkpt lat="50.106553975492716" lon="6.011011954396963">
        <ele>415.88</ele>
        <time>2024-12-29T16:36:41.970Z</time>
      </trkpt>
      <trkpt lat="50.10656998492777" lon="6.01100692525506">
        <ele>414.58</ele>
        <time>2024-12-29T16:36:56.213Z</time>
      </trkpt>
      <trkpt lat="50.10658792220056" lon="6.011018995195627">
        <ele>413.38</ele>
        <time>2024-12-29T16:37:10.458Z</time>
      </trkpt>
      <trkpt lat="50.10660292580724" lon="6.011017989367247">
        <ele>412.26</ele>
        <time>2024-12-29T16:37:24.705Z</time>
      </trkpt>
      <trkpt lat="50.106604937464" lon="6.010998962447047">
        <ele>411.23</ele>
        <time>2024-12-29T16:37:38.954Z</time>
      </trkpt>
      <trkpt lat="50.10658691637218" lon="6.010930985212326">
        <ele>410.21</ele>
        <time>2024-12-29T16:37:53.209Z</time>
      </trkpt>
      <trkpt lat="50.106576941907406" lon="6.010850938037038">
        <ele>409.26</ele>
        <time>2024-12-29T16:38:07.471Z</time>
      </trkpt>
      <trkpt lat="50.10658096522093" lon="6.010797964408994">
        <ele>408.43</ele>
        <time>2024-12-29T16:38:21.738Z</time>
      </trkpt>
      <trkpt lat="50.10659999214113" lon="6.010761922225356">
        <ele>407.73</ele>
        <time>2024-12-29T16:38:36.009Z</time>
      </trkpt>
      <trkpt lat="50.106661934405565" lon="6.01074599660933">
        <ele>407.16</ele>
        <time>2024-12-29T16:38:50.288Z</time>
      </trkpt>
      <trkpt lat="50.10672094300389" lon="6.010766951367259">
        <ele>406.72</ele>
        <time>2024-12-29T16:39:04.575Z</time>
      </trkpt>
      <trkpt lat="50.10679897852242" lon="6.010764939710498">
        <ele>406.35</ele>
        <time>2024-12-29T16:39:18.873Z</time>
      </trkpt>
      <trkpt lat="50.106817753985524" lon="6.010764855891466">
        <ele>406.02</ele>
        <time>2024-12-29T16:39:33.173Z</time>
      </trkpt>
      <trkpt lat="50.10681792162359" lon="6.010764939710498">
        <ele>405.54</ele>
        <time>2024-12-29T16:39:47.473Z</time>
      </trkpt>
      <trkpt lat="50.10685094632208" lon="6.010568048804998">
        <ele>405.25</ele>
        <time>2024-12-29T16:40:01.791Z</time>
      </trkpt>
      <trkpt lat="50.106854969635606" lon="6.010543992742896">
        <ele>405.18</ele>
        <time>2024-12-29T16:40:16.111Z</time>
      </trkpt>
      <trkpt lat="50.106855975463986" lon="6.010449947789311">
        <ele>405.13</ele>
        <time>2024-12-29T16:40:30.439Z</time>
      </trkpt>
      <trkpt lat="50.10684298351407" lon="6.0103559866547585">
        <ele>405.23</ele>
        <time>2024-12-29T16:40:44.775Z</time>
      </trkpt>
      <trkpt lat="50.10684298351407" lon="6.010256996378303">
        <ele>405.45</ele>
        <time>2024-12-29T16:40:59.120Z</time>
      </trkpt>
      <trkpt lat="50.10686092078686" lon="6.010124981403351">
        <ele>405.79</ele>
        <time>2024-12-29T16:41:13.476Z</time>
      </trkpt>
      <trkpt lat="50.106894951313734" lon="6.010015932843089">
        <ele>406.23</ele>
        <time>2024-12-29T16:41:27.843Z</time>
      </trkpt>
      <trkpt lat="50.10695496574044" lon="6.009924989193678">
        <ele>406.79</ele>
        <time>2024-12-29T16:41:42.221Z</time>
      </trkpt>
      <trkpt lat="50.10708295740187" lon="6.0098049603402615">
        <ele>407.47</ele>
        <time>2024-12-29T16:41:56.619Z</time>
      </trkpt>
      <trkpt lat="50.107231652364135" lon="6.009621229022741">
        <ele>408.3</ele>
        <time>2024-12-29T16:42:11.042Z</time>
      </trkpt>
      <trkpt lat="50.10737992823124" lon="6.00943791680038">
        <ele>409.22</ele>
        <time>2024-12-29T16:42:25.490Z</time>
      </trkpt>
      <trkpt lat="50.107555110007524" lon="6.009088056162">
        <ele>410.22</ele>
        <time>2024-12-29T16:42:39.977Z</time>
      </trkpt>
      <trkpt lat="50.10773020796478" lon="6.008738111704588">
        <ele>411.05</ele>
        <time>2024-12-29T16:42:54.502Z</time>
      </trkpt>
      <trkpt lat="50.10790538974106" lon="6.008388167247176">
        <ele>412.1</ele>
        <time>2024-12-29T16:43:09.065Z</time>
      </trkpt>
      <trkpt lat="50.10808057151735" lon="6.008038222789764">
        <ele>413.55</ele>
        <time>2024-12-29T16:43:23.666Z</time>
      </trkpt>
      <trkpt lat="50.1082556694746" lon="6.007688194513321">
        <ele>414.89</ele>
        <time>2024-12-29T16:43:38.305Z</time>
      </trkpt>
      <trkpt lat="50.10842892341316" lon="6.007341938093305">
        <ele>416.3</ele>
        <time>2024-12-29T16:43:52.981Z</time>
      </trkpt>
      <trkpt lat="50.10847795754671" lon="6.0072539281100035">
        <ele>417.86</ele>
        <time>2024-12-29T16:44:07.667Z</time>
      </trkpt>
      <trkpt lat="50.10864894837141" lon="6.007132977247238">
        <ele>419.74</ele>
        <time>2024-12-29T16:44:22.379Z</time>
      </trkpt>
      <trkpt lat="50.10873293504119" lon="6.007025940343738">
        <ele>421.56</ele>
        <time>2024-12-29T16:44:37.105Z</time>
      </trkpt>
      <trkpt lat="50.108862686902285" lon="6.006782026961446">
        <ele>423.5</ele>
        <time>2024-12-29T16:44:51.858Z</time>
      </trkpt>
      <trkpt lat="50.10899193584919" lon="6.006538951769471">
        <ele>425.56</ele>
        <time>2024-12-29T16:45:06.638Z</time>
      </trkpt>
      <trkpt lat="50.10907793417573" lon="6.006449935957789">
        <ele>427.6</ele>
        <time>2024-12-29T16:45:21.432Z</time>
      </trkpt>
      <trkpt lat="50.10910592973232" lon="6.006612963974476">
        <ele>429.77</ele>
        <time>2024-12-29T16:45:36.241Z</time>
      </trkpt>
      <trkpt lat="50.10911498218775" lon="6.006620926782489">
        <ele>431.77</ele>
        <time>2024-12-29T16:45:51.051Z</time>
      </trkpt>
      <trkpt lat="50.10916099883616" lon="6.006582956761122">
        <ele>433.84</ele>
        <time>2024-12-29T16:46:05.868Z</time>
      </trkpt>
      <trkpt lat="50.109300976619124" lon="6.006419928744435">
        <ele>436.04</ele>
        <time>2024-12-29T16:46:20.708Z</time>
      </trkpt>
      <trkpt lat="50.10931799188256" lon="6.006418922916055">
        <ele>438.05</ele>
        <time>2024-12-29T16:46:35.551Z</time>
      </trkpt>
      <trkpt lat="50.109323943033814" lon="6.0064419731497765">
        <ele>440.07</ele>
        <time>2024-12-29T16:46:50.396Z</time>
      </trkpt>
      <trkpt lat="50.10928798466921" lon="6.006822930648923">
        <ele>442.22</ele>
        <time>2024-12-29T16:47:05.274Z</time>
      </trkpt>
      <trkpt lat="50.109283961355686" lon="6.006938936188817">
        <ele>444.15</ele>
        <time>2024-12-29T16:47:20.162Z</time>
      </trkpt>
      <trkpt lat="50.10920492000878" lon="6.007289970293641">
        <ele>445.86</ele>
        <time>2024-12-29T16:47:35.082Z</time>
      </trkpt>
      <trkpt lat="50.1092329993844" lon="6.00731092505157">
        <ele>447.75</ele>
        <time>2024-12-29T16:47:50.006Z</time>
      </trkpt>
      <trkpt lat="50.10933098383248" lon="6.007163990288973">
        <ele>449.76</ele>
        <time>2024-12-29T16:48:04.948Z</time>
      </trkpt>
      <trkpt lat="50.109435925260186" lon="6.007050918415189">
        <ele>451.66</ele>
        <time>2024-12-29T16:48:19.907Z</time>
      </trkpt>
      <trkpt lat="50.10957699269056" lon="6.0069449711591005">
        <ele>453.52</ele>
        <time>2024-12-29T16:48:34.887Z</time>
      </trkpt>
      <trkpt lat="50.10963097214699" lon="6.006873976439238">
        <ele>455.16</ele>
        <time>2024-12-29T16:48:49.876Z</time>
      </trkpt>
      <trkpt lat="50.10978293605149" lon="6.006618998944759">
        <ele>456.82</ele>
        <time>2024-12-29T16:49:04.895Z</time>
      </trkpt>
      <trkpt lat="50.109817972406745" lon="6.006496958434582">
        <ele>458.22</ele>
        <time>2024-12-29T16:49:19.926Z</time>
      </trkpt>
      <trkpt lat="50.109818978235126" lon="6.006362931802869">
        <ele>459.37</ele>
        <time>2024-12-29T16:49:34.968Z</time>
      </trkpt>
      <trkpt lat="50.109862983226776" lon="6.0060269851237535">
        <ele>460.41</ele>
        <time>2024-12-29T16:49:50.040Z</time>
      </trkpt>
      <trkpt lat="50.11004696600139" lon="6.005857922136784">
        <ele>461.84</ele>
        <time>2024-12-29T16:50:05.140Z</time>
      </trkpt>
      <trkpt lat="50.11011192575097" lon="6.005763961002231">
        <ele>462.85</ele>
        <time>2024-12-29T16:50:20.252Z</time>
      </trkpt>
      <trkpt lat="50.110139921307564" lon="6.005635969340801">
        <ele>463.6</ele>
        <time>2024-12-29T16:50:35.376Z</time>
      </trkpt>
      <trkpt lat="50.11014495044947" lon="6.005529938265681">
        <ele>464.12</ele>
        <time>2024-12-29T16:50:50.509Z</time>
      </trkpt>
      <trkpt lat="50.11022097431123" lon="6.005320977419615">
        <ele>464.7</ele>
        <time>2024-12-29T16:51:05.662Z</time>
      </trkpt>
      <trkpt lat="50.11029498651624" lon="6.005181921645999">
        <ele>465.19</ele>
        <time>2024-12-29T16:51:20.831Z</time>
      </trkpt>
      <trkpt lat="50.11032893322408" lon="6.005000956356525">
        <ele>465.33</ele>
        <time>2024-12-29T16:51:36.016Z</time>
      </trkpt>
      <trkpt lat="50.110358940437436" lon="6.004701973870397">
        <ele>465.27</ele>
        <time>2024-12-29T16:51:51.227Z</time>
      </trkpt>
      <trkpt lat="50.11035810224712" lon="6.004686886444688">
        <ele>465.25</ele>
        <time>2024-12-29T16:52:06.439Z</time>
      </trkpt>
      <trkpt lat="50.11034997180104" lon="6.004530983045697">
        <ele>464.98</ele>
        <time>2024-12-29T16:52:21.665Z</time>
      </trkpt>
      <trkpt lat="50.11030697263777" lon="6.004351945593953">
        <ele>464.49</ele>
        <time>2024-12-29T16:52:36.907Z</time>
      </trkpt>
      <trkpt lat="50.11038593016565" lon="6.004293942824006">
        <ele>464.53</ele>
        <time>2024-12-29T16:52:52.161Z</time>
      </trkpt>
      <trkpt lat="50.11050092987716" lon="6.0042499378323555">
        <ele>464.63</ele>
        <time>2024-12-29T16:53:07.431Z</time>
      </trkpt>
      <trkpt lat="50.11055499315262" lon="6.003901921212673">
        <ele>464.21</ele>
        <time>2024-12-29T16:53:22.731Z</time>
      </trkpt>
      <trkpt lat="50.110529931262136" lon="6.003629928454757">
        <ele>463.61</ele>
        <time>2024-12-29T16:53:38.055Z</time>
      </trkpt>
      <trkpt lat="50.110548958182335" lon="6.003539990633726">
        <ele>463.33</ele>
        <time>2024-12-29T16:53:53.387Z</time>
      </trkpt>
      <trkpt lat="50.11060293763876" lon="6.003496991470456">
        <ele>463.2</ele>
        <time>2024-12-29T16:54:08.727Z</time>
      </trkpt>
      <trkpt lat="50.11064493097365" lon="6.003498919308186">
        <ele>463.15</ele>
        <time>2024-12-29T16:54:24.073Z</time>
      </trkpt>
      <trkpt lat="50.11067099869251" lon="6.003512917086482">
        <ele>463.12</ele>
        <time>2024-12-29T16:54:39.422Z</time>
      </trkpt>
      <trkpt lat="50.110701927915215" lon="6.003502942621708">
        <ele>463.06</ele>
        <time>2024-12-29T16:54:54.776Z</time>
      </trkpt>
      <trkpt lat="50.110762948170304" lon="6.003516940400004">
        <ele>463.06</ele>
        <time>2024-12-29T16:55:10.138Z</time>
      </trkpt>
      <trkpt lat="50.11084391735494" lon="6.003516940400004">
        <ele>463.02</ele>
        <time>2024-12-29T16:55:25.511Z</time>
      </trkpt>
      <trkpt lat="50.11086696758866" lon="6.00348693318665">
        <ele>462.87</ele>
        <time>2024-12-29T16:55:40.888Z</time>
      </trkpt>
      <trkpt lat="50.11094894260168" lon="6.00348693318665">
        <ele>462.79</ele>
        <time>2024-12-29T16:55:56.276Z</time>
      </trkpt>
      <trkpt lat="50.11106092482805" lon="6.003531944006681">
        <ele>462.76</ele>
        <time>2024-12-29T16:56:11.679Z</time>
      </trkpt>
      <trkpt lat="50.11130131781101" lon="6.00354895927012">
        <ele>462.57</ele>
        <time>2024-12-29T16:56:27.114Z</time>
      </trkpt>
      <trkpt lat="50.11154162697494" lon="6.003565974533558">
        <ele>462.38</ele>
        <time>2024-12-29T16:56:42.581Z</time>
      </trkpt>
      <trkpt lat="50.11178193613887" lon="6.003582989796996">
        <ele>461.8</ele>
        <time>2024-12-29T16:56:58.080Z</time>
      </trkpt>
      <trkpt lat="50.11203498579562" lon="6.003619451075792">
        <ele>461.21</ele>
        <time>2024-12-29T16:57:13.613Z</time>
      </trkpt>
      <trkpt lat="50.112287951633334" lon="6.00365599617362">
        <ele>460.65</ele>
        <time>2024-12-29T16:57:29.180Z</time>
      </trkpt>
      <trkpt lat="50.112459948286414" lon="6.0036529786884785">
        <ele>460.0</ele>
        <time>2024-12-29T16:57:44.770Z</time>
      </trkpt>
      <trkpt lat="50.11274795047939" lon="6.003596484661102">
        <ele>459.19</ele>
        <time>2024-12-29T16:58:00.399Z</time>
      </trkpt>
      <trkpt lat="50.11303595267236" lon="6.003539990633726">
        <ele>458.09</ele>
        <time>2024-12-29T16:58:16.067Z</time>
      </trkpt>
      <trkpt lat="50.113171990960836" lon="6.003558933734894">
        <ele>457.0</ele>
        <time>2024-12-29T16:58:31.753Z</time>
      </trkpt>
      <trkpt lat="50.11329394765198" lon="6.003617942333221">
        <ele>455.81</ele>
        <time>2024-12-29T16:58:47.456Z</time>
      </trkpt>
      <trkpt lat="50.113534927368164" lon="6.003845930099487">
        <ele>454.52</ele>
        <time>2024-12-29T16:59:03.197Z</time>
      </trkpt>
      <trkpt lat="50.113631654530764" lon="6.003619031980634">
        <ele>453.0</ele>
        <time>2024-12-29T16:59:18.961Z</time>
      </trkpt>
      <trkpt lat="50.113727962598205" lon="6.003392972052097">
        <ele>451.45</ele>
        <time>2024-12-29T16:59:34.748Z</time>
      </trkpt>
      <trkpt lat="50.11392015963793" lon="6.003612661734223">
        <ele>449.9</ele>
        <time>2024-12-29T16:59:50.567Z</time>
      </trkpt>
      <trkpt lat="50.11411193758249" lon="6.003831932321191">
        <ele>448.29</ele>
        <time>2024-12-29T17:00:06.418Z</time>
      </trkpt>
      <trkpt lat="50.11432467028499" lon="6.004085065796971">
        <ele>446.58</ele>
        <time>2024-12-29T17:00:22.305Z</time>
      </trkpt>
      <trkpt lat="50.11453740298748" lon="6.00433811545372">
        <ele>444.74</ele>
        <time>2024-12-29T17:00:38.227Z</time>
      </trkpt>
      <trkpt lat="50.114750135689974" lon="6.004591248929501">
        <ele>443.11</ele>
        <time>2024-12-29T17:00:54.185Z</time>
      </trkpt>
      <trkpt lat="50.11496286839247" lon="6.004844382405281">
        <ele>441.58</ele>
        <time>2024-12-29T17:01:10.179Z</time>
      </trkpt>
      <trkpt lat="50.11517560109496" lon="6.00509743206203">
        <ele>439.86</ele>
        <time>2024-12-29T17:01:26.209Z</time>
      </trkpt>
      <trkpt lat="50.11538699269295" lon="6.005348972976208">
        <ele>438.05</ele>
        <time>2024-12-29T17:01:42.274Z</time>
      </trkpt>
      <trkpt lat="50.11557181365788" lon="6.005590204149485">
        <ele>436.5</ele>
        <time>2024-12-29T17:01:58.371Z</time>
      </trkpt>
      <trkpt lat="50.115756718441844" lon="6.005831519141793">
        <ele>435.08</ele>
        <time>2024-12-29T17:02:14.501Z</time>
      </trkpt>
      <trkpt lat="50.115940952673554" lon="6.006071995943785">
        <ele>433.69</ele>
        <time>2024-12-29T17:02:30.663Z</time>
      </trkpt>
      <trkpt lat="50.11605695821345" lon="6.006196970120072">
        <ele>432.24</ele>
        <time>2024-12-29T17:02:46.843Z</time>
      </trkpt>
      <trkpt lat="50.11610498651862" lon="6.00623594596982">
        <ele>430.76</ele>
        <time>2024-12-29T17:03:03.031Z</time>
      </trkpt>
      <trkpt lat="50.116150919348" lon="6.006240975111723">
        <ele>429.26</ele>
        <time>2024-12-29T17:03:19.225Z</time>
      </trkpt>
      <trkpt lat="50.11621596291661" lon="6.006176937371492">
        <ele>427.73</ele>
        <time>2024-12-29T17:03:35.429Z</time>
      </trkpt>
      <trkpt lat="50.11631981469691" lon="6.005889689549804">
        <ele>425.99</ele>
        <time>2024-12-29T17:03:51.661Z</time>
      </trkpt>
      <trkpt lat="50.116423750296235" lon="6.005602357909083">
        <ele>424.29</ele>
        <time>2024-12-29T17:04:07.922Z</time>
      </trkpt>
      <trkpt lat="50.11652693152428" lon="6.0053169541060925">
        <ele>422.84</ele>
        <time>2024-12-29T17:04:24.211Z</time>
      </trkpt>
      <trkpt lat="50.11655794456601" lon="6.005254928022623">
        <ele>421.73</ele>
        <time>2024-12-29T17:04:40.507Z</time>
      </trkpt>
      <trkpt lat="50.116584934294224" lon="6.005224920809269">
        <ele>420.75</ele>
        <time>2024-12-29T17:04:56.807Z</time>
      </trkpt>
      <trkpt lat="50.11660781688988" lon="6.0052206460386515">
        <ele>419.9</ele>
        <time>2024-12-29T17:05:13.110Z</time>
      </trkpt>
      <trkpt lat="50.11661695316434" lon="6.005218969658017">
        <ele>419.18</ele>
        <time>2024-12-29T17:05:29.414Z</time>
      </trkpt>
      <trkpt lat="50.11666196398437" lon="6.005082931369543">
        <ele>418.6</ele>
        <time>2024-12-29T17:05:45.731Z</time>
      </trkpt>
      <trkpt lat="50.11668099090457" lon="6.004836922511458">
        <ele>418.15</ele>
        <time>2024-12-29T17:06:02.070Z</time>
      </trkpt>
      <trkpt lat="50.11668593622744" lon="6.0046799294650555">
        <ele>417.86</ele>
        <time>2024-12-29T17:06:18.422Z</time>
      </trkpt>
      <trkpt lat="50.116673950105906" lon="6.004403997212648">
        <ele>417.75</ele>
        <time>2024-12-29T17:06:34.798Z</time>
      </trkpt>
      <trkpt lat="50.116674955934286" lon="6.004273993894458">
        <ele>417.82</ele>
        <time>2024-12-29T17:06:51.185Z</time>
      </trkpt>
      <trkpt lat="50.1166829187423" lon="6.004190929234028">
        <ele>418.06</ele>
        <time>2024-12-29T17:07:07.579Z</time>
      </trkpt>
      <trkpt lat="50.1166985090822" lon="6.00413728505373">
        <ele>418.46</ele>
        <time>2024-12-29T17:07:23.978Z</time>
      </trkpt>
      <trkpt lat="50.11670898646116" lon="6.004100991412997">
        <ele>419.02</ele>
        <time>2024-12-29T17:07:40.381Z</time>
      </trkpt>
      <trkpt lat="50.116734970360994" lon="6.004049945622683">
        <ele>419.74</ele>
        <time>2024-12-29T17:07:56.789Z</time>
      </trkpt>
      <trkpt lat="50.11676598340273" lon="6.004043994471431">
        <ele>420.58</ele>
        <time>2024-12-29T17:08:13.201Z</time>
      </trkpt>
      <trkpt lat="50.11688391678035" lon="6.004076935350895">
        <ele>421.62</ele>
        <time>2024-12-29T17:08:29.629Z</time>
      </trkpt>
      <trkpt lat="50.116973938420415" lon="6.004082970321178">
        <ele>422.79</ele>
        <time>2024-12-29T17:08:46.069Z</time>
      </trkpt>
      <trkpt lat="50.117055997252464" lon="6.004129992797971">
        <ele>424.02</ele>
        <time>2024-12-29T17:09:02.521Z</time>
      </trkpt>
      <trkpt lat="50.1172059495002" lon="6.004145918413997">
        <ele>425.47</ele>
        <time>2024-12-29T17:09:18.993Z</time>
      </trkpt>
      <trkpt lat="50.11721793562174" lon="6.004180954769254">
        <ele>426.75</ele>
        <time>2024-12-29T17:09:35.469Z</time>
      </trkpt>
      <trkpt lat="50.11722397059202" lon="6.004207944497466">
        <ele>428.1</ele>
        <time>2024-12-29T17:09:51.947Z</time>
      </trkpt>
      <trkpt lat="50.117318937554955" lon="6.004180954769254">
        <ele>429.67</ele>
        <time>2024-12-29T17:10:08.438Z</time>
      </trkpt>
      <trkpt lat="50.11740795336664" lon="6.004167962819338">
        <ele>431.22</ele>
        <time>2024-12-29T17:10:24.941Z</time>
      </trkpt>
      <trkpt lat="50.117529993876815" lon="6.004220936447382">
        <ele>432.69</ele>
        <time>2024-12-29T17:10:41.461Z</time>
      </trkpt>
      <trkpt lat="50.11766796000302" lon="6.0043129697442055">
        <ele>434.15</ele>
        <time>2024-12-29T17:10:58.001Z</time>
      </trkpt>
      <trkpt lat="50.117828976362944" lon="6.004442973062396">
        <ele>435.53</ele>
        <time>2024-12-29T17:11:14.565Z</time>
      </trkpt>
      <trkpt lat="50.11790994554758" lon="6.004556966945529">
        <ele>436.85</ele>
        <time>2024-12-29T17:11:31.144Z</time>
      </trkpt>
      <trkpt lat="50.11786887422204" lon="6.00421205163002">
        <ele>438.2</ele>
        <time>2024-12-29T17:11:47.753Z</time>
      </trkpt>
      <trkpt lat="50.11782797053456" lon="6.003868980333209">
        <ele>439.48</ele>
        <time>2024-12-29T17:12:04.392Z</time>
      </trkpt>
      <trkpt lat="50.117830988019705" lon="6.0037209559232">
        <ele>440.65</ele>
        <time>2024-12-29T17:12:21.043Z</time>
      </trkpt>
      <trkpt lat="50.11784892529249" lon="6.003559939563274">
        <ele>441.71</ele>
        <time>2024-12-29T17:12:37.708Z</time>
      </trkpt>
      <trkpt lat="50.11784196831286" lon="6.003362964838743">
        <ele>442.72</ele>
        <time>2024-12-29T17:12:54.390Z</time>
      </trkpt>
      <trkpt lat="50.117812966927886" lon="6.003134977072477">
        <ele>443.62</ele>
        <time>2024-12-29T17:13:11.092Z</time>
      </trkpt>
      <trkpt lat="50.117747923359275" lon="6.002950994297862">
        <ele>444.52</ele>
        <time>2024-12-29T17:13:27.812Z</time>
      </trkpt>
      <trkpt lat="50.11761322617531" lon="6.0027240961790085">
        <ele>445.3</ele>
        <time>2024-12-29T17:13:44.559Z</time>
      </trkpt>
      <trkpt lat="50.1174789480865" lon="6.00249795243144">
        <ele>445.67</ele>
        <time>2024-12-29T17:14:01.332Z</time>
      </trkpt>
      <trkpt lat="50.11750593781471" lon="6.00230592302978">
        <ele>445.87</ele>
        <time>2024-12-29T17:14:18.122Z</time>
      </trkpt>
      <trkpt lat="50.11751499027014" lon="6.002287985756993">
        <ele>446.1</ele>
        <time>2024-12-29T17:14:34.914Z</time>
      </trkpt>
      <trkpt lat="50.11756997555494" lon="6.002300977706909">
        <ele>446.23</ele>
        <time>2024-12-29T17:14:51.714Z</time>
      </trkpt>
      <trkpt lat="50.11758699081838" lon="6.002291925251484">
        <ele>446.23</ele>
        <time>2024-12-29T17:15:08.516Z</time>
      </trkpt>
      <trkpt lat="50.11758891865611" lon="6.002270970493555">
        <ele>446.1</ele>
        <time>2024-12-29T17:15:25.320Z</time>
      </trkpt>
      <trkpt lat="50.117571987211704" lon="6.002240963280201">
        <ele>445.85</ele>
        <time>2024-12-29T17:15:42.127Z</time>
      </trkpt>
      <trkpt lat="50.11741097085178" lon="6.0020979680120945">
        <ele>445.44</ele>
        <time>2024-12-29T17:15:58.959Z</time>
      </trkpt>
      <trkpt lat="50.117398984730244" lon="6.00206796079874">
        <ele>444.97</ele>
        <time>2024-12-29T17:16:15.794Z</time>
      </trkpt>
      <trkpt lat="50.11741298250854" lon="6.002055974677205">
        <ele>444.37</ele>
        <time>2024-12-29T17:16:32.631Z</time>
      </trkpt>
      <trkpt lat="50.11768497526646" lon="6.002074917778373">
        <ele>443.57</ele>
        <time>2024-12-29T17:16:49.504Z</time>
      </trkpt>
      <trkpt lat="50.117699978873134" lon="6.002063937485218">
        <ele>442.77</ele>
        <time>2024-12-29T17:17:06.380Z</time>
      </trkpt>
      <trkpt lat="50.117702996358275" lon="6.0020399652421474">
        <ele>441.82</ele>
        <time>2024-12-29T17:17:23.258Z</time>
      </trkpt>
      <trkpt lat="50.11769092641771" lon="6.0020199324935675">
        <ele>440.74</ele>
        <time>2024-12-29T17:17:40.138Z</time>
      </trkpt>
      <trkpt lat="50.117508955299854" lon="6.001927983015776">
        <ele>439.49</ele>
        <time>2024-12-29T17:17:57.044Z</time>
      </trkpt>
      <trkpt lat="50.11741097085178" lon="6.001838967204094">
        <ele>437.97</ele>
        <time>2024-12-29T17:18:13.965Z</time>
      </trkpt>
      <trkpt lat="50.11761297471821" lon="6.001823963597417">
        <ele>436.22</ele>
        <time>2024-12-29T17:18:30.913Z</time>
      </trkpt>
      <trkpt lat="50.11778295971453" lon="6.001749951392412">
        <ele>434.43</ele>
        <time>2024-12-29T17:18:47.884Z</time>
      </trkpt>
      <trkpt lat="50.11785797774792" lon="6.001691948622465">
        <ele>432.71</ele>
        <time>2024-12-29T17:19:04.866Z</time>
      </trkpt>
      <trkpt lat="50.11795495636761" lon="6.001663953065872">
        <ele>430.97</ele>
        <time>2024-12-29T17:19:21.862Z</time>
      </trkpt>
      <trkpt lat="50.11803894303739" lon="6.001585917547345">
        <ele>429.02</ele>
        <time>2024-12-29T17:19:38.871Z</time>
      </trkpt>
      <trkpt lat="50.11826693080366" lon="6.001590946689248">
        <ele>427.26</ele>
        <time>2024-12-29T17:19:55.910Z</time>
      </trkpt>
      <trkpt lat="50.11847094632685" lon="6.001583989709616">
        <ele>425.41</ele>
        <time>2024-12-29T17:20:12.976Z</time>
      </trkpt>
      <trkpt lat="50.11850397102535" lon="6.001310991123319">
        <ele>423.96</ele>
        <time>2024-12-29T17:20:30.066Z</time>
      </trkpt>
      <trkpt lat="50.118493158370256" lon="6.001305961981416">
        <ele>422.95</ele>
        <time>2024-12-29T17:20:47.158Z</time>
      </trkpt>
    </trkseg>
  </trk>
</gpx>
